Wetterdaten: Samstag, 01.07.2023
Datum Zeit Temp. Aussen Temp. o. S. Temp +5cm Feuchte Auss Luftdruck Regen Sonnenschein Regendauer Solar Windben Empfang
01.07.2023 00:00 18,8 C 17,8 C 15,0 C 73 % 1010,3 hPa 0,0 l/m 0 min 0 min 0 W/m 6,4 km/h (2 Bft) 95,65 %
01.07.2023 00:02 18,8 C 17,8 C 15,0 C 73 % 1010,3 hPa 0,0 l/m 0 min 0 min 0 W/m 9,7 km/h (2 Bft) 97,44 %
01.07.2023 00:04 18,8 C 17,8 C 15,0 C 73 % 1010,2 hPa 0,0 l/m 0 min 0 min 0 W/m 9,7 km/h (2 Bft) 97,96 %
01.07.2023 00:08 18,8 C 17,8 C 15,0 C 73 % 1010,2 hPa 0,0 l/m 0 min 0 min 0 W/m 9,7 km/h (2 Bft) 96,00 %
01.07.2023 00:10 18,8 C 17,8 C 15,0 C 73 % 1010,1 hPa 0,0 l/m 0 min 0 min 0 W/m 6,4 km/h (2 Bft) 97,56 %
01.07.2023 00:12 18,8 C 17,8 C 15,0 C 73 % 1010,1 hPa 0,0 l/m 0 min 0 min 0 W/m 3,2 km/h (1 Bft) 95,65 %
01.07.2023 00:14 18,8 C 17,8 C 15,0 C 73 % 1010,0 hPa 0,0 l/m 0 min 0 min 0 W/m 3,2 km/h (1 Bft) 97,87 %
01.07.2023 00:16 18,8 C 17,8 C 15,0 C 73 % 1010,1 hPa 0,0 l/m 0 min 0 min 0 W/m 3,2 km/h (1 Bft) 93,62 %
01.07.2023 00:18 18,8 C 17,8 C 15,0 C 73 % 1010,1 hPa 0,0 l/m 0 min 0 min 0 W/m 6,4 km/h (2 Bft) 97,87 %
01.07.2023 00:20 18,8 C 17,8 C 15,0 C 73 % 1010,1 hPa 0,0 l/m 0 min 0 min 0 W/m 3,2 km/h (1 Bft) 97,87 %
01.07.2023 00:22 18,7 C 17,8 C 15,0 C 73 % 1010,1 hPa 0,0 l/m 0 min 0 min 0 W/m 3,2 km/h (1 Bft) 97,67 %
01.07.2023 00:24 18,7 C 17,8 C 15,0 C 73 % 1010,1 hPa 0,0 l/m 0 min 0 min 0 W/m 3,2 km/h (1 Bft) 97,87 %
01.07.2023 00:26 18,7 C 17,8 C 15,0 C 73 % 1010,1 hPa 0,0 l/m 0 min 0 min 0 W/m 3,2 km/h (1 Bft) 97,87 %
01.07.2023 00:28 18,7 C 17,8 C 15,0 C 73 % 1010,0 hPa 0,0 l/m 0 min 0 min 0 W/m 3,2 km/h (1 Bft) 100,00 %
01.07.2023 00:30 18,7 C 17,8 C 14,4 C 73 % 1010,0 hPa 0,0 l/m 0 min 0 min 0 W/m 0,0 km/h (0 Bft) 100,00 %
01.07.2023 00:32 18,7 C 17,8 C 14,4 C 74 % 1010,0 hPa 0,0 l/m 0 min 0 min 0 W/m 3,2 km/h (1 Bft) 95,74 %
01.07.2023 00:34 18,7 C 17,8 C 14,4 C 74 % 1010,0 hPa 0,0 l/m 0 min 0 min 0 W/m 6,4 km/h (2 Bft) 100,00 %
01.07.2023 00:36 18,7 C 17,8 C 14,4 C 74 % 1009,9 hPa 0,0 l/m 0 min 0 min 0 W/m 3,2 km/h (1 Bft) 97,87 %
01.07.2023 00:38 18,7 C 17,8 C 14,4 C 74 % 1010,0 hPa 0,0 l/m 0 min 0 min 0 W/m 3,2 km/h (1 Bft) 100,00 %
01.07.2023 00:40 18,7 C 17,8 C 14,4 C 75 % 1009,9 hPa 0,0 l/m 0 min 0 min 0 W/m 6,4 km/h (2 Bft) 97,87 %
01.07.2023 00:42 18,7 C 17,8 C 14,4 C 74 % 1009,9 hPa 0,0 l/m 0 min 0 min 0 W/m 9,7 km/h (2 Bft) 97,87 %
01.07.2023 00:44 18,7 C 17,8 C 14,4 C 74 % 1009,9 hPa 0,0 l/m 0 min 0 min 0 W/m 9,7 km/h (2 Bft) 97,87 %
01.07.2023 00:46 18,7 C 17,8 C 14,4 C 74 % 1009,9 hPa 0,0 l/m 0 min 0 min 0 W/m 6,4 km/h (2 Bft) 97,92 %
01.07.2023 00:48 18,6 C 17,8 C 14,4 C 74 % 1009,9 hPa 0,0 l/m 0 min 0 min 0 W/m 12,9 km/h (3 Bft) 97,87 %
01.07.2023 00:50 18,6 C 17,8 C 14,4 C 75 % 1009,9 hPa 0,0 l/m 0 min 0 min 0 W/m 3,2 km/h (1 Bft) 97,83 %
01.07.2023 00:52 18,6 C 17,8 C 14,4 C 75 % 1009,9 hPa 0,0 l/m 0 min 0 min 0 W/m 9,7 km/h (2 Bft) 95,74 %
01.07.2023 00:54 18,6 C 17,8 C 14,4 C 75 % 1009,8 hPa 0,0 l/m 0 min 0 min 0 W/m 3,2 km/h (1 Bft) 93,62 %
01.07.2023 00:56 18,6 C 17,8 C 15,0 C 74 % 1009,8 hPa 0,0 l/m 0 min 0 min 0 W/m 6,4 km/h (2 Bft) 93,62 %
01.07.2023 00:58 18,6 C 17,8 C 15,0 C 74 % 1009,8 hPa 0,0 l/m 0 min 0 min 0 W/m 12,9 km/h (3 Bft) 93,62 %
01.07.2023 01:00 18,6 C 17,8 C 15,0 C 74 % 1009,8 hPa 0,0 l/m 0 min 0 min 0 W/m 9,7 km/h (2 Bft) 95,92 %
01.07.2023 01:02 18,6 C 17,8 C 15,0 C 74 % 1009,7 hPa 0,0 l/m 0 min 0 min 0 W/m 3,2 km/h (1 Bft) 95,74 %
01.07.2023 01:04 18,6 C 17,8 C 15,0 C 74 % 1009,8 hPa 0,0 l/m 0 min 0 min 0 W/m 3,2 km/h (1 Bft) 95,83 %
01.07.2023 01:06 18,6 C 17,8 C 15,0 C 74 % 1009,7 hPa 0,0 l/m 0 min 0 min 0 W/m 3,2 km/h (1 Bft) 95,74 %
01.07.2023 01:08 18,6 C 17,8 C 15,0 C 74 % 1009,7 hPa 0,0 l/m 0 min 0 min 0 W/m 9,7 km/h (2 Bft) 95,74 %
01.07.2023 01:10 18,6 C 17,8 C 15,0 C 74 % 1009,6 hPa 0,0 l/m 0 min 0 min 0 W/m 3,2 km/h (1 Bft) 93,62 %
01.07.2023 01:12 18,6 C 17,8 C 15,0 C 74 % 1009,6 hPa 0,0 l/m 0 min 0 min 0 W/m 3,2 km/h (1 Bft) 95,74 %
01.07.2023 01:14 18,6 C 17,8 C 15,0 C 74 % 1009,6 hPa 0,0 l/m 0 min 0 min 0 W/m 3,2 km/h (1 Bft) 95,74 %
01.07.2023 01:16 18,6 C 17,8 C 15,0 C 74 % 1009,6 hPa 0,0 l/m 0 min 0 min 0 W/m 3,2 km/h (1 Bft) 97,87 %
01.07.2023 01:18 18,6 C 17,8 C 15,0 C 75 % 1009,5 hPa 0,0 l/m 0 min 0 min 0 W/m 9,7 km/h (2 Bft) 97,83 %
01.07.2023 01:20 18,6 C 17,8 C 15,0 C 75 % 1009,5 hPa 0,0 l/m 0 min 0 min 0 W/m 6,4 km/h (2 Bft) 97,87 %
01.07.2023 01:22 18,6 C 17,8 C 15,0 C 75 % 1009,4 hPa 0,0 l/m 0 min 0 min 0 W/m 6,4 km/h (2 Bft) 97,87 %
01.07.2023 01:24 18,6 C 17,8 C 15,0 C 74 % 1009,5 hPa 0,0 l/m 0 min 0 min 0 W/m 9,7 km/h (2 Bft) 97,87 %
01.07.2023 01:26 18,6 C 17,8 C 14,4 C 75 % 1009,5 hPa 0,0 l/m 0 min 0 min 0 W/m 3,2 km/h (1 Bft) 95,74 %
01.07.2023 01:28 18,6 C 17,8 C 14,4 C 75 % 1009,5 hPa 0,0 l/m 0 min 0 min 0 W/m 3,2 km/h (1 Bft) 97,87 %
01.07.2023 01:30 18,6 C 17,8 C 15,0 C 75 % 1009,5 hPa 0,0 l/m 0 min 0 min 0 W/m 3,2 km/h (1 Bft) 97,87 %
01.07.2023 01:32 18,6 C 17,8 C 15,0 C 75 % 1009,5 hPa 0,0 l/m 0 min 0 min 0 W/m 12,9 km/h (3 Bft) 97,83 %
01.07.2023 01:34 18,6 C 17,8 C 14,4 C 75 % 1009,5 hPa 0,0 l/m 0 min 0 min 0 W/m 6,4 km/h (2 Bft) 97,87 %
01.07.2023 01:36 18,6 C 17,8 C 14,4 C 75 % 1009,4 hPa 0,0 l/m 0 min 0 min 0 W/m 6,4 km/h (2 Bft) 97,87 %
01.07.2023 01:38 18,6 C 17,8 C 14,4 C 75 % 1009,4 hPa 0,0 l/m 0 min 0 min 0 W/m 3,2 km/h (1 Bft) 97,87 %
01.07.2023 01:40 18,6 C 17,8 C 14,4 C 75 % 1009,4 hPa 0,0 l/m 0 min 0 min 0 W/m 3,2 km/h (1 Bft) 97,30 %
01.07.2023 01:42 18,6 C 17,8 C 15,0 C 75 % 1009,4 hPa 0,0 l/m 0 min 0 min 0 W/m 6,4 km/h (2 Bft) 97,87 %
01.07.2023 01:44 18,6 C 17,8 C 15,0 C 75 % 1009,3 hPa 0,0 l/m 0 min 0 min 0 W/m 3,2 km/h (1 Bft) 100,00 %
01.07.2023 01:46 18,6 C 17,8 C 15,0 C 75 % 1009,4 hPa 0,0 l/m 0 min 0 min 0 W/m 3,2 km/h (1 Bft) 100,00 %
01.07.2023 01:48 18,6 C 17,8 C 15,0 C 75 % 1009,3 hPa 0,0 l/m 0 min 0 min 0 W/m 3,2 km/h (1 Bft) 100,00 %
01.07.2023 01:50 18,6 C 17,8 C 14,4 C 75 % 1009,3 hPa 0,0 l/m 0 min 0 min 0 W/m 6,4 km/h (2 Bft) 100,00 %
01.07.2023 01:52 18,6 C 17,8 C 14,4 C 75 % 1009,3 hPa 0,0 l/m 0 min 0 min 0 W/m 6,4 km/h (2 Bft) 100,00 %
01.07.2023 01:54 18,6 C 17,8 C 14,4 C 75 % 1009,3 hPa 0,0 l/m 0 min 0 min 0 W/m 3,2 km/h (1 Bft) 100,00 %
01.07.2023 01:56 18,6 C 17,8 C 14,4 C 75 % 1009,3 hPa 0,0 l/m 0 min 0 min 0 W/m 3,2 km/h (1 Bft) 100,00 %
01.07.2023 01:58 18,6 C 17,8 C 14,4 C 75 % 1009,3 hPa 0,0 l/m 0 min 0 min 0 W/m 6,4 km/h (2 Bft) 97,87 %
01.07.2023 02:00 18,6 C 17,8 C 14,4 C 75 % 1009,2 hPa 0,0 l/m 0 min 0 min 0 W/m 3,2 km/h (1 Bft) 97,87 %
01.07.2023 02:02 18,6 C 17,8 C 14,4 C 75 % 1009,2 hPa 0,0 l/m 0 min 0 min 0 W/m 3,2 km/h (1 Bft) 100,00 %
01.07.2023 02:04 18,6 C 17,8 C 14,4 C 75 % 1009,2 hPa 0,0 l/m 0 min 0 min 0 W/m 3,2 km/h (1 Bft) 100,00 %
01.07.2023 02:06 18,5 C 17,8 C 14,4 C 75 % 1009,1 hPa 0,0 l/m 0 min 0 min 0 W/m 6,4 km/h (2 Bft) 100,00 %
01.07.2023 02:08 18,5 C 17,8 C 14,4 C 75 % 1009,1 hPa 0,0 l/m 0 min 0 min 0 W/m 9,7 km/h (2 Bft) 100,00 %
01.07.2023 02:10 18,5 C 17,8 C 14,4 C 75 % 1009,0 hPa 0,0 l/m 0 min 0 min 0 W/m 9,7 km/h (2 Bft) 100,00 %
01.07.2023 02:14 18,4 C 17,8 C 14,4 C 75 % 1009,0 hPa 0,0 l/m 0 min 0 min 0 W/m 3,2 km/h (1 Bft) 100,00 %
01.07.2023 02:16 18,4 C 17,8 C 14,4 C 75 % 1009,1 hPa 0,0 l/m 0 min 0 min 0 W/m 9,7 km/h (2 Bft) 91,49 %
01.07.2023 02:18 18,4 C 17,8 C 14,4 C 75 % 1009,0 hPa 0,0 l/m 0 min 0 min 0 W/m 6,4 km/h (2 Bft) 100,00 %
01.07.2023 02:20 18,4 C 17,8 C 14,4 C 75 % 1009,0 hPa 0,0 l/m 0 min 0 min 0 W/m 6,4 km/h (2 Bft) 97,87 %
01.07.2023 02:22 18,4 C 17,8 C 14,4 C 75 % 1009,0 hPa 0,0 l/m 0 min 0 min 0 W/m 3,2 km/h (1 Bft) 97,87 %
01.07.2023 02:24 18,4 C 17,2 C 14,4 C 75 % 1009,0 hPa 0,0 l/m 0 min 0 min 0 W/m 3,2 km/h (1 Bft) 100,00 %
01.07.2023 02:26 18,4 C 17,2 C 14,4 C 76 % 1009,0 hPa 0,0 l/m 0 min 0 min 0 W/m 3,2 km/h (1 Bft) 95,65 %
01.07.2023 02:28 18,4 C 17,2 C 14,4 C 76 % 1008,9 hPa 0,0 l/m 0 min 0 min 0 W/m 6,4 km/h (2 Bft) 100,00 %
01.07.2023 02:30 18,3 C 17,2 C 14,4 C 76 % 1008,9 hPa 0,0 l/m 0 min 0 min 0 W/m 6,4 km/h (2 Bft) 100,00 %
01.07.2023 02:32 18,3 C 17,2 C 14,4 C 76 % 1008,9 hPa 0,0 l/m 0 min 0 min 0 W/m 0,0 km/h (0 Bft) 100,00 %
01.07.2023 02:34 18,3 C 17,2 C 14,4 C 76 % 1008,9 hPa 0,0 l/m 0 min 0 min 0 W/m 0,0 km/h (0 Bft) 100,00 %
01.07.2023 02:36 18,3 C 17,2 C 14,4 C 76 % 1008,9 hPa 0,0 l/m 0 min 0 min 0 W/m 0,0 km/h (0 Bft) 93,62 %
01.07.2023 02:38 18,3 C 17,2 C 14,4 C 76 % 1008,8 hPa 0,0 l/m 0 min 0 min 0 W/m 0,0 km/h (0 Bft) 95,74 %
01.07.2023 02:40 18,3 C 17,2 C 14,4 C 76 % 1008,8 hPa 0,0 l/m 0 min 0 min 0 W/m 6,4 km/h (2 Bft) 95,65 %
01.07.2023 02:42 18,3 C 17,2 C 14,4 C 76 % 1008,8 hPa 0,0 l/m 0 min 0 min 0 W/m 6,4 km/h (2 Bft) 93,62 %
01.07.2023 02:44 18,3 C 17,2 C 14,4 C 76 % 1008,8 hPa 0,0 l/m 0 min 0 min 0 W/m 6,4 km/h (2 Bft) 93,62 %
01.07.2023 02:46 18,3 C 17,2 C 14,4 C 76 % 1008,7 hPa 0,0 l/m 0 min 0 min 0 W/m 3,2 km/h (1 Bft) 95,74 %
01.07.2023 02:48 18,3 C 17,2 C 14,4 C 76 % 1008,7 hPa 0,0 l/m 0 min 0 min 0 W/m 6,4 km/h (2 Bft) 95,74 %
01.07.2023 02:50 18,3 C 17,2 C 14,4 C 76 % 1008,7 hPa 0,0 l/m 0 min 0 min 0 W/m 6,4 km/h (2 Bft) 93,62 %
01.07.2023 02:52 18,3 C 17,2 C 14,4 C 76 % 1008,7 hPa 0,0 l/m 0 min 0 min 0 W/m 6,4 km/h (2 Bft) 95,74 %
01.07.2023 02:54 18,2 C 17,2 C 14,4 C 76 % 1008,6 hPa 0,0 l/m 0 min 0 min 0 W/m 6,4 km/h (2 Bft) 93,48 %
01.07.2023 02:56 18,2 C 17,2 C 14,4 C 76 % 1008,6 hPa 0,0 l/m 0 min 0 min 0 W/m 3,2 km/h (1 Bft) 95,74 %
01.07.2023 02:58 18,2 C 17,2 C 14,4 C 76 % 1008,6 hPa 0,0 l/m 0 min 0 min 0 W/m 6,4 km/h (2 Bft) 95,74 %
01.07.2023 03:00 18,2 C 17,2 C 14,4 C 76 % 1008,6 hPa 0,0 l/m 0 min 0 min 0 W/m 3,2 km/h (1 Bft) 95,74 %
01.07.2023 03:02 18,2 C 17,2 C 14,4 C 76 % 1008,5 hPa 0,0 l/m 0 min 0 min 0 W/m 3,2 km/h (1 Bft) 93,62 %
01.07.2023 03:04 18,2 C 17,2 C 14,4 C 76 % 1008,6 hPa 0,0 l/m 0 min 0 min 0 W/m 9,7 km/h (2 Bft) 93,88 %
01.07.2023 03:06 18,2 C 17,2 C 14,4 C 76 % 1008,6 hPa 0,0 l/m 0 min 0 min 0 W/m 3,2 km/h (1 Bft) 95,74 %
01.07.2023 03:08 18,2 C 17,2 C 14,4 C 76 % 1008,6 hPa 0,0 l/m 0 min 0 min 0 W/m 6,4 km/h (2 Bft) 95,65 %
01.07.2023 03:10 18,2 C 17,2 C 14,4 C 76 % 1008,5 hPa 0,0 l/m 0 min 0 min 0 W/m 3,2 km/h (1 Bft) 95,74 %
01.07.2023 03:12 18,2 C 17,2 C 14,4 C 76 % 1008,5 hPa 0,0 l/m 0 min 0 min 0 W/m 0,0 km/h (0 Bft) 97,87 %
01.07.2023 03:14 18,2 C 17,2 C 14,4 C 76 % 1008,4 hPa 0,0 l/m 0 min 0 min 0 W/m 0,0 km/h (0 Bft) 97,87 %
01.07.2023 03:16 18,2 C 17,2 C 14,4 C 76 % 1008,4 hPa 0,0 l/m 0 min 0 min 0 W/m 0,0 km/h (0 Bft) 97,14 %
01.07.2023 03:18 18,2 C 17,2 C 14,4 C 76 % 1008,3 hPa 0,0 l/m 0 min 0 min 0 W/m 9,7 km/h (2 Bft) 95,74 %
01.07.2023 03:20 18,2 C 17,2 C 14,4 C 76 % 1008,3 hPa 0,0 l/m 0 min 0 min 0 W/m 12,9 km/h (3 Bft) 97,87 %
01.07.2023 03:22 18,2 C 17,2 C 14,4 C 76 % 1008,3 hPa 0,0 l/m 0 min 0 min 0 W/m 9,7 km/h (2 Bft) 97,87 %
01.07.2023 03:24 18,2 C 17,2 C 14,4 C 76 % 1008,2 hPa 0,0 l/m 0 min 0 min 0 W/m 6,4 km/h (2 Bft) 100,00 %
01.07.2023 03:26 18,2 C 17,2 C 14,4 C 76 % 1008,2 hPa 0,0 l/m 0 min 0 min 0 W/m 16,1 km/h (3 Bft) 100,00 %
01.07.2023 03:28 18,1 C 17,2 C 14,4 C 76 % 1008,2 hPa 0,0 l/m 0 min 0 min 0 W/m 3,2 km/h (1 Bft) 100,00 %
01.07.2023 03:30 18,1 C 17,2 C 14,4 C 76 % 1008,2 hPa 0,0 l/m 0 min 0 min 0 W/m 6,4 km/h (2 Bft) 95,74 %
01.07.2023 03:32 18,1 C 17,2 C 14,4 C 76 % 1008,1 hPa 0,0 l/m 0 min 0 min 0 W/m 9,7 km/h (2 Bft) 100,00 %
01.07.2023 03:34 18,1 C 17,2 C 14,4 C 76 % 1008,2 hPa 0,0 l/m 0 min 0 min 0 W/m 12,9 km/h (3 Bft) 100,00 %
01.07.2023 03:36 18,1 C 17,2 C 14,4 C 76 % 1008,1 hPa 0,0 l/m 0 min 0 min 0 W/m 6,4 km/h (2 Bft) 97,22 %
01.07.2023 03:38 18,1 C 17,2 C 14,4 C 76 % 1008,1 hPa 0,0 l/m 0 min 0 min 0 W/m 3,2 km/h (1 Bft) 100,00 %
01.07.2023 03:40 18,1 C 17,2 C 14,4 C 76 % 1008,0 hPa 0,0 l/m 0 min 0 min 0 W/m 12,9 km/h (3 Bft) 97,87 %
01.07.2023 03:42 18,1 C 17,2 C 14,4 C 76 % 1008,0 hPa 0,0 l/m 0 min 0 min 0 W/m 6,4 km/h (2 Bft) 100,00 %
01.07.2023 03:44 18,1 C 17,2 C 14,4 C 76 % 1008,0 hPa 0,0 l/m 0 min 0 min 0 W/m 6,4 km/h (2 Bft) 100,00 %
01.07.2023 03:46 18,1 C 17,2 C 14,4 C 76 % 1008,0 hPa 0,0 l/m 0 min 0 min 0 W/m 3,2 km/h (1 Bft) 98,18 %
01.07.2023 03:48 18,1 C 17,2 C 14,4 C 76 % 1007,9 hPa 0,0 l/m 0 min 0 min 0 W/m 9,7 km/h (2 Bft) 97,87 %
01.07.2023 03:50 18,1 C 17,2 C 14,4 C 76 % 1008,0 hPa 0,0 l/m 0 min 0 min 0 W/m 3,2 km/h (1 Bft) 97,87 %
01.07.2023 03:52 18,1 C 17,2 C 14,4 C 76 % 1008,0 hPa 0,0 l/m 0 min 0 min 0 W/m 6,4 km/h (2 Bft) 93,62 %
01.07.2023 03:54 18,1 C 17,2 C 14,4 C 76 % 1007,9 hPa 0,0 l/m 0 min 0 min 0 W/m 6,4 km/h (2 Bft) 95,74 %
01.07.2023 03:56 18,1 C 17,2 C 14,4 C 76 % 1007,9 hPa 0,0 l/m 0 min 0 min 0 W/m 9,7 km/h (2 Bft) 96,00 %
01.07.2023 03:58 18,1 C 17,2 C 14,4 C 76 % 1007,9 hPa 0,0 l/m 0 min 0 min 0 W/m 6,4 km/h (2 Bft) 97,87 %
01.07.2023 04:00 18,1 C 17,2 C 14,4 C 76 % 1007,9 hPa 0,0 l/m 0 min 0 min 0 W/m 12,9 km/h (3 Bft) 97,87 %
01.07.2023 04:02 18,1 C 17,2 C 14,4 C 76 % 1007,8 hPa 0,0 l/m 0 min 0 min 0 W/m 3,2 km/h (1 Bft) 97,83 %
01.07.2023 04:04 18,1 C 17,2 C 14,4 C 76 % 1007,7 hPa 0,0 l/m 0 min 0 min 0 W/m 6,4 km/h (2 Bft) 95,74 %
01.07.2023 04:06 18,1 C 17,2 C 14,4 C 76 % 1007,8 hPa 0,0 l/m 0 min 0 min 0 W/m 6,4 km/h (2 Bft) 95,74 %
01.07.2023 04:08 18,1 C 17,2 C 14,4 C 76 % 1007,8 hPa 0,0 l/m 0 min 0 min 0 W/m 3,2 km/h (1 Bft) 97,14 %
01.07.2023 04:10 18,1 C 17,2 C 14,4 C 75 % 1007,8 hPa 0,0 l/m 0 min 0 min 0 W/m 3,2 km/h (1 Bft) 95,74 %
01.07.2023 04:12 18,1 C 17,2 C 14,4 C 76 % 1007,7 hPa 0,0 l/m 0 min 0 min 0 W/m 3,2 km/h (1 Bft) 96,49 %
01.07.2023 04:14 18,1 C 17,2 C 14,4 C 75 % 1007,7 hPa 0,0 l/m 0 min 0 min 0 W/m 6,4 km/h (2 Bft) 93,48 %
01.07.2023 04:16 18,1 C 17,2 C 14,4 C 75 % 1007,6 hPa 0,0 l/m 0 min 0 min 0 W/m 9,7 km/h (2 Bft) 95,74 %
01.07.2023 04:18 18,1 C 17,2 C 14,4 C 75 % 1007,6 hPa 0,0 l/m 0 min 0 min 0 W/m 9,7 km/h (2 Bft) 95,74 %
01.07.2023 04:20 18,1 C 17,2 C 14,4 C 75 % 1007,6 hPa 0,0 l/m 0 min 0 min 0 W/m 9,7 km/h (2 Bft) 97,96 %
01.07.2023 04:22 18,1 C 17,2 C 14,4 C 75 % 1007,6 hPa 0,0 l/m 0 min 0 min 0 W/m 6,4 km/h (2 Bft) 97,87 %
01.07.2023 04:24 18,1 C 17,2 C 14,4 C 75 % 1007,6 hPa 0,0 l/m 0 min 0 min 0 W/m 16,1 km/h (3 Bft) 95,74 %
01.07.2023 04:26 18,1 C 17,2 C 14,4 C 75 % 1007,6 hPa 0,0 l/m 0 min 0 min 0 W/m 6,4 km/h (2 Bft) 95,74 %
01.07.2023 04:28 18,1 C 17,2 C 14,4 C 75 % 1007,6 hPa 0,0 l/m 0 min 0 min 0 W/m 12,9 km/h (3 Bft) 97,87 %
01.07.2023 04:30 18,1 C 17,2 C 14,4 C 75 % 1007,6 hPa 0,0 l/m 0 min 0 min 0 W/m 12,9 km/h (3 Bft) 95,74 %
01.07.2023 04:32 18,1 C 17,2 C 14,4 C 75 % 1007,6 hPa 0,0 l/m 0 min 0 min 0 W/m 19,3 km/h (3 Bft) 95,65 %
01.07.2023 04:34 18,1 C 17,2 C 14,4 C 74 % 1007,5 hPa 0,0 l/m 0 min 0 min 0 W/m 6,4 km/h (2 Bft) 97,87 %
01.07.2023 04:36 18,1 C 17,2 C 14,4 C 75 % 1007,6 hPa 0,0 l/m 0 min 0 min 0 W/m 3,2 km/h (1 Bft) 97,87 %
01.07.2023 04:38 18,2 C 17,2 C 14,4 C 75 % 1007,6 hPa 0,0 l/m 0 min 0 min 0 W/m 16,1 km/h (3 Bft) 97,87 %
01.07.2023 04:40 18,2 C 17,2 C 14,4 C 75 % 1007,6 hPa 0,0 l/m 0 min 0 min 0 W/m 9,7 km/h (2 Bft) 95,74 %
01.07.2023 04:42 18,2 C 17,2 C 14,4 C 74 % 1007,6 hPa 0,0 l/m 0 min 0 min 0 W/m 6,4 km/h (2 Bft) 97,87 %
01.07.2023 04:44 18,2 C 17,2 C 14,4 C 74 % 1007,6 hPa 0,0 l/m 0 min 0 min 0 W/m 12,9 km/h (3 Bft) 97,14 %
01.07.2023 04:46 18,2 C 17,2 C 14,4 C 74 % 1007,5 hPa 0,0 l/m 0 min 0 min 0 W/m 9,7 km/h (2 Bft) 97,87 %
01.07.2023 04:48 18,2 C 17,2 C 14,4 C 74 % 1007,5 hPa 0,0 l/m 0 min 0 min 0 W/m 6,4 km/h (2 Bft) 97,87 %
01.07.2023 04:50 18,2 C 17,2 C 14,4 C 74 % 1007,5 hPa 0,0 l/m 0 min 0 min 0 W/m 9,7 km/h (2 Bft) 97,83 %
01.07.2023 04:52 18,2 C 17,2 C 14,4 C 74 % 1007,5 hPa 0,0 l/m 0 min 0 min 0 W/m 6,4 km/h (2 Bft) 97,87 %
01.07.2023 04:54 18,2 C 17,2 C 14,4 C 74 % 1007,5 hPa 0,0 l/m 0 min 0 min 0 W/m 6,4 km/h (2 Bft) 100,00 %
01.07.2023 04:56 18,2 C 17,2 C 14,4 C 74 % 1007,5 hPa 0,0 l/m 0 min 0 min 0 W/m 9,7 km/h (2 Bft) 97,87 %
01.07.2023 04:58 18,2 C 17,2 C 14,4 C 74 % 1007,5 hPa 0,0 l/m 0 min 0 min 0 W/m 12,9 km/h (3 Bft) 97,87 %
01.07.2023 05:00 18,2 C 17,2 C 14,4 C 74 % 1007,5 hPa 0,0 l/m 0 min 0 min 0 W/m 12,9 km/h (3 Bft) 100,00 %
01.07.2023 05:02 18,2 C 17,2 C 14,4 C 73 % 1007,5 hPa 0,0 l/m 0 min 0 min 0 W/m 12,9 km/h (3 Bft) 93,62 %
01.07.2023 05:04 18,2 C 17,2 C 14,4 C 74 % 1007,5 hPa 0,0 l/m 0 min 0 min 0 W/m 6,4 km/h (2 Bft) 100,00 %
01.07.2023 05:06 18,2 C 17,2 C 14,4 C 73 % 1007,4 hPa 0,0 l/m 0 min 0 min 0 W/m 6,4 km/h (2 Bft) 98,31 %
01.07.2023 05:08 18,2 C 17,2 C 14,4 C 73 % 1007,5 hPa 0,0 l/m 0 min 0 min 0 W/m 9,7 km/h (2 Bft) 100,00 %
01.07.2023 05:10 18,2 C 17,2 C 14,4 C 73 % 1007,5 hPa 0,0 l/m 0 min 0 min 0 W/m 9,7 km/h (2 Bft) 100,00 %
01.07.2023 05:12 18,2 C 17,2 C 14,4 C 73 % 1007,5 hPa 0,0 l/m 0 min 0 min 0 W/m 12,9 km/h (3 Bft) 100,00 %
01.07.2023 05:14 18,2 C 17,8 C 14,4 C 73 % 1007,5 hPa 0,0 l/m 0 min 0 min 0 W/m 22,5 km/h (4 Bft) 100,00 %
01.07.2023 05:16 18,2 C 17,8 C 14,4 C 73 % 1007,4 hPa 0,0 l/m 0 min 0 min 0 W/m 3,2 km/h (1 Bft) 100,00 %
01.07.2023 05:18 18,2 C 17,8 C 14,4 C 73 % 1007,4 hPa 0,0 l/m 0 min 0 min 0 W/m 19,3 km/h (3 Bft) 100,00 %
01.07.2023 05:20 18,2 C 17,8 C 14,4 C 72 % 1007,3 hPa 0,0 l/m 0 min 0 min 0 W/m 29,0 km/h (5 Bft) 100,00 %
01.07.2023 05:22 18,2 C 17,8 C 14,4 C 72 % 1007,3 hPa 0,0 l/m 0 min 0 min 0 W/m 12,9 km/h (3 Bft) 97,87 %
01.07.2023 05:24 18,3 C 17,8 C 14,4 C 73 % 1007,2 hPa 0,0 l/m 0 min 0 min 0 W/m 3,2 km/h (1 Bft) 100,00 %
01.07.2023 05:26 18,3 C 17,8 C 14,4 C 72 % 1007,2 hPa 0,0 l/m 0 min 0 min 0 W/m 19,3 km/h (3 Bft) 95,74 %
01.07.2023 05:28 18,3 C 17,8 C 14,4 C 72 % 1007,2 hPa 0,0 l/m 0 min 0 min 0 W/m 9,7 km/h (2 Bft) 95,74 %
01.07.2023 05:30 18,3 C 17,8 C 14,4 C 72 % 1007,1 hPa 0,0 l/m 0 min 0 min 0 W/m 19,3 km/h (3 Bft) 97,87 %
01.07.2023 05:32 18,3 C 17,8 C 14,4 C 72 % 1007,1 hPa 0,0 l/m 0 min 0 min 0 W/m 22,5 km/h (4 Bft) 93,48 %
01.07.2023 05:34 18,3 C 17,8 C 14,4 C 72 % 1007,1 hPa 0,0 l/m 0 min 0 min 0 W/m 16,1 km/h (3 Bft) 97,87 %
01.07.2023 05:36 18,3 C 17,8 C 14,4 C 72 % 1007,1 hPa 0,0 l/m 0 min 0 min 0 W/m 9,7 km/h (2 Bft) 97,87 %
01.07.2023 05:38 18,4 C 17,8 C 14,4 C 72 % 1007,2 hPa 0,0 l/m 0 min 0 min 0 W/m 19,3 km/h (3 Bft) 93,62 %
01.07.2023 05:40 18,3 C 17,8 C 14,4 C 72 % 1007,1 hPa 0,0 l/m 0 min 0 min 0 W/m 12,9 km/h (3 Bft) 97,87 %
01.07.2023 05:42 18,4 C 17,8 C 14,4 C 72 % 1007,1 hPa 0,0 l/m 0 min 0 min 3 W/m 12,9 km/h (3 Bft) 97,87 %
01.07.2023 05:44 18,4 C 17,8 C 14,4 C 72 % 1007,2 hPa 0,0 l/m 0 min 0 min 5 W/m 16,1 km/h (3 Bft) 97,87 %
01.07.2023 05:46 18,4 C 17,8 C 14,4 C 72 % 1007,2 hPa 0,0 l/m 0 min 0 min 5 W/m 25,7 km/h (4 Bft) 97,87 %
01.07.2023 05:48 18,4 C 17,8 C 14,4 C 72 % 1007,1 hPa 0,0 l/m 0 min 0 min 5 W/m 12,9 km/h (3 Bft) 93,48 %
01.07.2023 05:50 18,4 C 17,8 C 14,4 C 72 % 1007,1 hPa 0,0 l/m 0 min 0 min 6 W/m 19,3 km/h (3 Bft) 97,87 %
01.07.2023 05:52 18,4 C 17,8 C 14,4 C 72 % 1007,0 hPa 0,0 l/m 0 min 0 min 7 W/m 12,9 km/h (3 Bft) 97,87 %
01.07.2023 05:54 18,4 C 17,8 C 14,4 C 72 % 1007,0 hPa 0,0 l/m 0 min 0 min 7 W/m 25,7 km/h (4 Bft) 97,87 %
01.07.2023 05:56 18,4 C 17,8 C 14,4 C 72 % 1007,0 hPa 0,0 l/m 0 min 0 min 9 W/m 19,3 km/h (3 Bft) 97,87 %
01.07.2023 05:58 18,4 C 17,8 C 14,4 C 72 % 1006,9 hPa 0,0 l/m 0 min 0 min 9 W/m 19,3 km/h (3 Bft) 97,87 %
01.07.2023 06:00 18,4 C 17,8 C 14,4 C 72 % 1006,9 hPa 0,0 l/m 0 min 0 min 11 W/m 16,1 km/h (3 Bft) 97,87 %
01.07.2023 06:02 18,4 C 17,8 C 14,4 C 72 % 1006,9 hPa 0,0 l/m 0 min 0 min 11 W/m 12,9 km/h (3 Bft) 97,83 %
01.07.2023 06:04 18,4 C 17,8 C 14,4 C 72 % 1006,8 hPa 0,0 l/m 0 min 0 min 12 W/m 12,9 km/h (3 Bft) 97,96 %
01.07.2023 06:08 18,4 C 17,8 C 14,4 C 72 % 1006,8 hPa 0,0 l/m 0 min 0 min 13 W/m 12,9 km/h (3 Bft) 96,81 %
01.07.2023 06:10 18,4 C 17,8 C 14,4 C 72 % 1006,8 hPa 0,0 l/m 0 min 0 min 17 W/m 3,2 km/h (1 Bft) 97,87 %
01.07.2023 06:12 18,4 C 17,8 C 14,4 C 72 % 1006,8 hPa 0,0 l/m 0 min 0 min 19 W/m 9,7 km/h (2 Bft) 95,74 %
01.07.2023 06:14 18,4 C 17,8 C 14,4 C 72 % 1006,8 hPa 0,0 l/m 0 min 0 min 20 W/m 3,2 km/h (1 Bft) 100,00 %
01.07.2023 06:16 18,4 C 17,8 C 14,4 C 72 % 1006,8 hPa 0,0 l/m 0 min 0 min 22 W/m 19,3 km/h (3 Bft) 100,00 %
01.07.2023 06:18 18,4 C 17,8 C 14,4 C 72 % 1006,7 hPa 0,0 l/m 0 min 0 min 23 W/m 9,7 km/h (2 Bft) 100,00 %
01.07.2023 06:20 18,4 C 17,8 C 14,4 C 72 % 1006,7 hPa 0,0 l/m 0 min 0 min 23 W/m 16,1 km/h (3 Bft) 97,87 %
01.07.2023 06:22 18,4 C 17,8 C 14,4 C 72 % 1006,7 hPa 0,0 l/m 0 min 0 min 25 W/m 12,9 km/h (3 Bft) 95,74 %
01.07.2023 06:24 18,4 C 17,8 C 14,4 C 72 % 1006,7 hPa 0,0 l/m 0 min 0 min 25 W/m 12,9 km/h (3 Bft) 97,87 %
01.07.2023 06:26 18,4 C 17,8 C 14,4 C 72 % 1006,7 hPa 0,0 l/m 0 min 0 min 25 W/m 6,4 km/h (2 Bft) 89,36 %
01.07.2023 06:28 18,4 C 17,8 C 14,4 C 72 % 1006,7 hPa 0,0 l/m 0 min 0 min 26 W/m 22,5 km/h (4 Bft) 97,83 %
01.07.2023 06:30 18,4 C 17,8 C 14,4 C 72 % 1006,6 hPa 0,0 l/m 0 min 0 min 28 W/m 6,4 km/h (2 Bft) 98,00 %
01.07.2023 06:32 18,4 C 17,8 C 14,4 C 72 % 1006,6 hPa 0,0 l/m 0 min 0 min 32 W/m 6,4 km/h (2 Bft) 95,74 %
01.07.2023 06:34 18,4 C 17,8 C 14,4 C 73 % 1006,6 hPa 0,0 l/m 0 min 0 min 35 W/m 19,3 km/h (3 Bft) 95,74 %
01.07.2023 06:36 18,4 C 17,8 C 14,4 C 72 % 1006,6 hPa 0,0 l/m 0 min 0 min 39 W/m 12,9 km/h (3 Bft) 95,74 %
01.07.2023 06:38 18,4 C 17,8 C 14,4 C 72 % 1006,5 hPa 0,0 l/m 0 min 0 min 40 W/m 6,4 km/h (2 Bft) 97,87 %
01.07.2023 06:40 18,4 C 17,8 C 14,4 C 73 % 1006,5 hPa 0,0 l/m 0 min 0 min 42 W/m 6,4 km/h (2 Bft) 97,83 %
01.07.2023 06:42 18,4 C 17,8 C 14,4 C 73 % 1006,6 hPa 0,0 l/m 0 min 0 min 42 W/m 22,5 km/h (4 Bft) 95,74 %
01.07.2023 06:44 18,4 C 17,8 C 14,4 C 72 % 1006,6 hPa 0,0 l/m 0 min 0 min 43 W/m 12,9 km/h (3 Bft) 95,74 %
01.07.2023 06:46 18,4 C 17,8 C 14,4 C 73 % 1006,6 hPa 0,0 l/m 0 min 0 min 44 W/m 19,3 km/h (3 Bft) 95,74 %
01.07.2023 06:48 18,4 C 17,8 C 14,4 C 73 % 1006,5 hPa 0,0 l/m 0 min 0 min 42 W/m 22,5 km/h (4 Bft) 91,49 %
01.07.2023 06:50 18,4 C 17,8 C 14,4 C 73 % 1006,5 hPa 0,0 l/m 0 min 0 min 44 W/m 12,9 km/h (3 Bft) 95,74 %
01.07.2023 06:52 18,4 C 17,8 C 14,4 C 73 % 1006,6 hPa 0,0 l/m 0 min 0 min 44 W/m 19,3 km/h (3 Bft) 93,62 %
01.07.2023 06:54 18,4 C 17,8 C 14,4 C 73 % 1006,5 hPa 0,0 l/m 0 min 0 min 43 W/m 19,3 km/h (3 Bft) 93,62 %
01.07.2023 06:56 18,4 C 17,8 C 14,4 C 73 % 1006,5 hPa 0,0 l/m 0 min 0 min 41 W/m 12,9 km/h (3 Bft) 95,65 %
01.07.2023 06:58 18,5 C 17,8 C 14,4 C 73 % 1006,5 hPa 0,0 l/m 0 min 0 min 42 W/m 29,0 km/h (5 Bft) 97,87 %
01.07.2023 07:00 18,4 C 17,8 C 14,4 C 73 % 1006,5 hPa 0,0 l/m 0 min 0 min 40 W/m 16,1 km/h (3 Bft) 93,62 %
01.07.2023 07:02 18,4 C 17,8 C 14,4 C 73 % 1006,5 hPa 0,0 l/m 0 min 0 min 38 W/m 12,9 km/h (3 Bft) 97,87 %
01.07.2023 07:04 18,4 C 17,8 C 14,4 C 73 % 1006,5 hPa 0,0 l/m 0 min 0 min 34 W/m 12,9 km/h (3 Bft) 97,92 %
01.07.2023 07:06 18,4 C 17,8 C 14,4 C 73 % 1006,5 hPa 0,0 l/m 0 min 0 min 33 W/m 16,1 km/h (3 Bft) 95,74 %
01.07.2023 07:08 18,4 C 17,8 C 14,4 C 74 % 1006,4 hPa 0,0 l/m 0 min 0 min 32 W/m 6,4 km/h (2 Bft) 97,83 %
01.07.2023 07:10 18,4 C 17,8 C 14,4 C 74 % 1006,5 hPa 0,0 l/m 0 min 0 min 33 W/m 16,1 km/h (3 Bft) 97,87 %
01.07.2023 07:12 18,4 C 17,8 C 14,4 C 74 % 1006,5 hPa 0,0 l/m 0 min 0 min 35 W/m 29,0 km/h (5 Bft) 95,74 %
01.07.2023 07:14 18,4 C 17,8 C 14,4 C 73 % 1006,4 hPa 0,0 l/m 0 min 0 min 37 W/m 16,1 km/h (3 Bft) 97,87 %
01.07.2023 07:16 18,4 C 17,8 C 14,4 C 74 % 1006,4 hPa 0,0 l/m 0 min 0 min 37 W/m 12,9 km/h (3 Bft) 97,87 %
01.07.2023 07:18 18,4 C 17,8 C 14,4 C 74 % 1006,4 hPa 0,0 l/m 0 min 0 min 36 W/m 6,4 km/h (2 Bft) 95,74 %
01.07.2023 07:20 18,4 C 17,8 C 14,4 C 74 % 1006,4 hPa 0,0 l/m 0 min 0 min 34 W/m 12,9 km/h (3 Bft) 95,74 %
01.07.2023 07:22 18,4 C 17,8 C 14,4 C 74 % 1006,4 hPa 0,0 l/m 0 min 0 min 33 W/m 19,3 km/h (3 Bft) 95,65 %
01.07.2023 07:24 18,4 C 17,8 C 14,4 C 74 % 1006,4 hPa 0,0 l/m 0 min 0 min 33 W/m 12,9 km/h (3 Bft) 95,74 %
01.07.2023 07:26 18,4 C 17,8 C 14,4 C 74 % 1006,4 hPa 0,0 l/m 0 min 0 min 33 W/m 19,3 km/h (3 Bft) 95,74 %
01.07.2023 07:28 18,4 C 17,8 C 14,4 C 74 % 1006,4 hPa 0,0 l/m 0 min 0 min 34 W/m 16,1 km/h (3 Bft) 97,87 %
01.07.2023 07:30 18,4 C 17,8 C 14,4 C 74 % 1006,4 hPa 0,0 l/m 0 min 0 min 35 W/m 19,3 km/h (3 Bft) 93,62 %
01.07.2023 07:32 18,4 C 17,8 C 14,4 C 74 % 1006,4 hPa 0,0 l/m 0 min 0 min 35 W/m 16,1 km/h (3 Bft) 100,00 %
01.07.2023 07:34 18,4 C 17,8 C 14,4 C 74 % 1006,3 hPa 0,0 l/m 0 min 0 min 35 W/m 12,9 km/h (3 Bft) 100,00 %
01.07.2023 07:36 18,4 C 17,8 C 14,4 C 74 % 1006,4 hPa 0,0 l/m 0 min 0 min 33 W/m 16,1 km/h (3 Bft) 97,83 %
01.07.2023 07:38 18,4 C 17,8 C 14,4 C 75 % 1006,4 hPa 0,0 l/m 0 min 0 min 33 W/m 12,9 km/h (3 Bft) 97,87 %
01.07.2023 07:40 18,3 C 17,8 C 14,4 C 75 % 1006,4 hPa 0,0 l/m 0 min 0 min 33 W/m 29,0 km/h (5 Bft) 100,00 %
01.07.2023 07:42 18,3 C 17,2 C 13,9 C 75 % 1006,4 hPa 0,0 l/m 0 min 0 min 35 W/m 22,5 km/h (4 Bft) 97,87 %
01.07.2023 07:44 18,3 C 17,2 C 13,9 C 76 % 1006,4 hPa 0,0 l/m 0 min 2 min 37 W/m 6,4 km/h (2 Bft) 100,00 %
01.07.2023 07:46 18,3 C 17,2 C 13,3 C 77 % 1006,4 hPa 0,0 l/m 0 min 2 min 37 W/m 12,9 km/h (3 Bft) 100,00 %
01.07.2023 07:48 18,3 C 17,2 C 12,8 C 78 % 1006,3 hPa 0,0 l/m 0 min 2 min 39 W/m 22,5 km/h (4 Bft) 97,87 %
01.07.2023 07:50 18,3 C 17,2 C 12,8 C 79 % 1006,4 hPa 0,0 l/m 0 min 2 min 41 W/m 12,9 km/h (3 Bft) 100,00 %
01.07.2023 07:52 18,2 C 16,7 C 12,2 C 80 % 1006,3 hPa 0,0 l/m 0 min 2 min 44 W/m 29,0 km/h (5 Bft) 100,00 %
01.07.2023 07:54 18,1 C 16,7 C 12,2 C 80 % 1006,3 hPa 0,0 l/m 0 min 2 min 42 W/m 35,4 km/h (5 Bft) 95,74 %
01.07.2023 07:56 17,9 C 16,7 C 12,2 C 81 % 1006,4 hPa 0,0 l/m 0 min 2 min 40 W/m 16,1 km/h (3 Bft) 100,00 %
01.07.2023 07:58 17,8 C 16,1 C 11,7 C 82 % 1006,4 hPa 0,2 l/m 0 min 2 min 47 W/m 19,3 km/h (3 Bft) 100,00 %
01.07.2023 08:00 17,7 C 16,1 C 11,7 C 83 % 1006,5 hPa 0,0 l/m 0 min 2 min 49 W/m 6,4 km/h (2 Bft) 97,87 %
01.07.2023 08:02 17,6 C 16,1 C 11,7 C 83 % 1006,4 hPa 0,0 l/m 0 min 2 min 47 W/m 16,1 km/h (3 Bft) 97,87 %
01.07.2023 08:04 17,4 C 16,1 C 11,7 C 84 % 1006,4 hPa 0,0 l/m 0 min 2 min 43 W/m 22,5 km/h (4 Bft) 100,00 %
01.07.2023 08:06 17,3 C 15,6 C 11,7 C 84 % 1006,4 hPa 0,0 l/m 0 min 2 min 41 W/m 16,1 km/h (3 Bft) 97,87 %
01.07.2023 08:08 17,2 C 16,1 C 11,7 C 85 % 1006,4 hPa 0,0 l/m 0 min 0 min 53 W/m 22,5 km/h (4 Bft) 97,87 %
01.07.2023 08:10 17,1 C 16,1 C 11,1 C 85 % 1006,4 hPa 0,0 l/m 0 min 0 min 63 W/m 12,9 km/h (3 Bft) 100,00 %
01.07.2023 08:12 17,1 C 16,1 C 11,7 C 85 % 1006,4 hPa 0,0 l/m 0 min 0 min 70 W/m 19,3 km/h (3 Bft) 100,00 %
01.07.2023 08:14 17,0 C 16,1 C 11,7 C 86 % 1006,4 hPa 0,0 l/m 0 min 0 min 72 W/m 19,3 km/h (3 Bft) 95,74 %
01.07.2023 08:16 16,9 C 16,1 C 11,7 C 86 % 1006,4 hPa 0,0 l/m 0 min 0 min 69 W/m 12,9 km/h (3 Bft) 95,74 %
01.07.2023 08:18 16,9 C 16,1 C 11,7 C 87 % 1006,4 hPa 0,0 l/m 0 min 0 min 70 W/m 22,5 km/h (4 Bft) 95,74 %
01.07.2023 08:20 16,8 C 16,1 C 11,7 C 87 % 1006,3 hPa 0,0 l/m 0 min 2 min 72 W/m 25,7 km/h (4 Bft) 93,62 %
01.07.2023 08:22 16,8 C 16,1 C 11,7 C 87 % 1006,3 hPa 0,0 l/m 0 min 0 min 79 W/m 16,1 km/h (3 Bft) 93,62 %
01.07.2023 08:24 16,8 C 16,1 C 11,7 C 87 % 1006,3 hPa 0,0 l/m 0 min 0 min 83 W/m 16,1 km/h (3 Bft) 95,74 %
01.07.2023 08:26 16,8 C 16,1 C 11,7 C 87 % 1006,4 hPa 0,0 l/m 0 min 2 min 83 W/m 25,7 km/h (4 Bft) 95,74 %
01.07.2023 08:28 16,8 C 16,1 C 11,7 C 87 % 1006,3 hPa 0,0 l/m 0 min 2 min 88 W/m 16,1 km/h (3 Bft) 91,43 %
01.07.2023 08:30 16,8 C 16,7 C 11,7 C 88 % 1006,3 hPa 0,0 l/m 0 min 0 min 101 W/m 12,9 km/h (3 Bft) 96,23 %
01.07.2023 08:32 16,8 C 16,1 C 11,7 C 88 % 1006,4 hPa 0,0 l/m 0 min 2 min 103 W/m 19,3 km/h (3 Bft) 95,74 %
01.07.2023 08:34 16,8 C 16,7 C 11,7 C 88 % 1006,4 hPa 0,0 l/m 0 min 2 min 97 W/m 16,1 km/h (3 Bft) 95,74 %
01.07.2023 08:36 16,8 C 16,1 C 11,7 C 88 % 1006,3 hPa 0,0 l/m 0 min 2 min 74 W/m 16,1 km/h (3 Bft) 93,62 %
01.07.2023 08:38 16,8 C 16,1 C 11,7 C 88 % 1006,3 hPa 0,0 l/m 0 min 2 min 72 W/m 16,1 km/h (3 Bft) 95,74 %
01.07.2023 08:40 16,8 C 16,7 C 11,7 C 88 % 1006,3 hPa 0,0 l/m 0 min 0 min 77 W/m 22,5 km/h (4 Bft) 93,62 %
01.07.2023 08:42 16,8 C 16,7 C 11,7 C 88 % 1006,3 hPa 0,0 l/m 0 min 0 min 88 W/m 19,3 km/h (3 Bft) 95,65 %
01.07.2023 08:44 16,9 C 16,7 C 11,7 C 88 % 1006,2 hPa 0,0 l/m 0 min 0 min 91 W/m 16,1 km/h (3 Bft) 97,87 %
01.07.2023 08:46 16,9 C 16,7 C 11,7 C 88 % 1006,2 hPa 0,0 l/m 0 min 0 min 97 W/m 12,9 km/h (3 Bft) 97,87 %
01.07.2023 08:48 16,9 C 16,7 C 11,7 C 89 % 1006,2 hPa 0,0 l/m 0 min 0 min 100 W/m 22,5 km/h (4 Bft) 95,74 %
01.07.2023 08:50 16,9 C 16,7 C 11,7 C 89 % 1006,2 hPa 0,0 l/m 0 min 0 min 105 W/m 22,5 km/h (4 Bft) 97,87 %
01.07.2023 08:52 16,9 C 16,7 C 11,7 C 88 % 1006,1 hPa 0,0 l/m 0 min 0 min 111 W/m 25,7 km/h (4 Bft) 97,87 %
01.07.2023 08:54 16,9 C 16,7 C 12,2 C 88 % 1006,1 hPa 0,0 l/m 0 min 0 min 106 W/m 19,3 km/h (3 Bft) 95,65 %
01.07.2023 08:56 16,9 C 16,7 C 12,2 C 88 % 1006,1 hPa 0,0 l/m 0 min 0 min 104 W/m 25,7 km/h (4 Bft) 97,87 %
01.07.2023 08:58 16,9 C 16,7 C 12,2 C 88 % 1006,1 hPa 0,0 l/m 0 min 0 min 104 W/m 16,1 km/h (3 Bft) 95,74 %
01.07.2023 09:00 17,0 C 16,7 C 12,2 C 88 % 1006,1 hPa 0,0 l/m 0 min 0 min 94 W/m 6,4 km/h (2 Bft) 97,87 %
01.07.2023 09:02 17,0 C 16,7 C 12,8 C 88 % 1006,2 hPa 0,0 l/m 0 min 0 min 89 W/m 12,9 km/h (3 Bft) 97,87 %
01.07.2023 09:04 17,1 C 16,7 C 12,8 C 88 % 1006,1 hPa 0,0 l/m 0 min 0 min 99 W/m 9,7 km/h (2 Bft) 97,62 %
01.07.2023 09:06 17,1 C 16,7 C 13,3 C 88 % 1006,1 hPa 0,0 l/m 0 min 0 min 123 W/m 25,7 km/h (4 Bft) 100,00 %
01.07.2023 09:08 17,1 C 16,7 C 13,3 C 88 % 1006,1 hPa 0,0 l/m 0 min 0 min 153 W/m 22,5 km/h (4 Bft) 94,29 %
01.07.2023 09:10 17,1 C 17,2 C 13,3 C 88 % 1006,1 hPa 0,0 l/m 0 min 0 min 167 W/m 16,1 km/h (3 Bft) 100,00 %
01.07.2023 09:12 17,2 C 17,2 C 13,3 C 88 % 1006,1 hPa 0,0 l/m 0 min 0 min 171 W/m 22,5 km/h (4 Bft) 97,87 %
01.07.2023 09:14 17,2 C 17,2 C 13,9 C 88 % 1006,0 hPa 0,0 l/m 0 min 0 min 161 W/m 19,3 km/h (3 Bft) 97,87 %
01.07.2023 09:16 17,2 C 17,2 C 13,9 C 87 % 1006,0 hPa 0,0 l/m 0 min 0 min 152 W/m 19,3 km/h (3 Bft) 97,83 %
01.07.2023 09:18 17,3 C 17,2 C 13,9 C 87 % 1006,1 hPa 0,0 l/m 0 min 0 min 148 W/m 25,7 km/h (4 Bft) 97,87 %
01.07.2023 09:20 17,3 C 17,2 C 13,9 C 87 % 1005,9 hPa 0,0 l/m 0 min 0 min 150 W/m 16,1 km/h (3 Bft) 93,62 %
01.07.2023 09:22 17,3 C 17,2 C 13,9 C 87 % 1006,0 hPa 0,0 l/m 0 min 0 min 165 W/m 16,1 km/h (3 Bft) 100,00 %
01.07.2023 09:24 17,4 C 17,2 C 13,9 C 87 % 1006,0 hPa 0,0 l/m 0 min 0 min 177 W/m 22,5 km/h (4 Bft) 100,00 %
01.07.2023 09:26 17,4 C 17,2 C 13,9 C 87 % 1006,0 hPa 0,0 l/m 0 min 0 min 161 W/m 22,5 km/h (4 Bft) 95,74 %
01.07.2023 09:28 17,4 C 17,2 C 13,9 C 86 % 1006,0 hPa 0,0 l/m 0 min 0 min 134 W/m 12,9 km/h (3 Bft) 100,00 %
01.07.2023 09:30 17,5 C 17,2 C 13,9 C 87 % 1006,0 hPa 0,0 l/m 0 min 0 min 129 W/m 19,3 km/h (3 Bft) 97,83 %
01.07.2023 09:32 17,6 C 17,2 C 13,9 C 87 % 1006,0 hPa 0,0 l/m 0 min 0 min 117 W/m 16,1 km/h (3 Bft) 100,00 %
01.07.2023 09:34 17,6 C 17,2 C 13,9 C 87 % 1006,0 hPa 0,0 l/m 0 min 0 min 121 W/m 16,1 km/h (3 Bft) 100,00 %
01.07.2023 09:36 17,6 C 17,2 C 13,9 C 86 % 1006,0 hPa 0,0 l/m 0 min 0 min 118 W/m 16,1 km/h (3 Bft) 100,00 %
01.07.2023 09:38 17,6 C 17,2 C 13,9 C 86 % 1005,9 hPa 0,0 l/m 0 min 0 min 130 W/m 22,5 km/h (4 Bft) 100,00 %
01.07.2023 09:40 17,6 C 17,2 C 13,9 C 86 % 1006,0 hPa 0,0 l/m 0 min 0 min 123 W/m 19,3 km/h (3 Bft) 97,87 %
01.07.2023 09:42 17,6 C 17,2 C 13,9 C 86 % 1006,0 hPa 0,0 l/m 0 min 0 min 137 W/m 16,1 km/h (3 Bft) 93,48 %
01.07.2023 09:44 17,6 C 17,2 C 13,3 C 86 % 1006,0 hPa 0,0 l/m 0 min 0 min 132 W/m 22,5 km/h (4 Bft) 97,87 %
01.07.2023 09:46 17,6 C 17,2 C 13,3 C 86 % 1005,9 hPa 0,0 l/m 0 min 0 min 141 W/m 22,5 km/h (4 Bft) 95,74 %
01.07.2023 09:48 17,6 C 17,2 C 13,9 C 86 % 1005,9 hPa 0,0 l/m 0 min 0 min 133 W/m 16,1 km/h (3 Bft) 97,87 %
01.07.2023 09:50 17,6 C 17,2 C 13,9 C 86 % 1005,9 hPa 0,0 l/m 0 min 0 min 156 W/m 16,1 km/h (3 Bft) 97,87 %
01.07.2023 09:52 17,6 C 17,8 C 13,9 C 86 % 1005,9 hPa 0,0 l/m 0 min 0 min 161 W/m 22,5 km/h (4 Bft) 100,00 %
01.07.2023 09:54 17,7 C 17,8 C 13,9 C 86 % 1005,9 hPa 0,0 l/m 0 min 0 min 175 W/m 25,7 km/h (4 Bft) 97,87 %
01.07.2023 09:56 17,7 C 17,2 C 13,9 C 86 % 1005,9 hPa 0,0 l/m 0 min 0 min 164 W/m 22,5 km/h (4 Bft) 95,65 %
01.07.2023 09:58 17,7 C 17,2 C 13,9 C 86 % 1005,8 hPa 0,0 l/m 0 min 0 min 167 W/m 41,8 km/h (6 Bft) 97,87 %
01.07.2023 10:00 17,7 C 17,2 C 13,9 C 86 % 1005,9 hPa 0,0 l/m 0 min 0 min 185 W/m 25,7 km/h (4 Bft) 97,87 %
01.07.2023 10:02 17,7 C 17,2 C 13,9 C 86 % 1005,9 hPa 0,0 l/m 0 min 0 min 181 W/m 25,7 km/h (4 Bft) 97,87 %
01.07.2023 10:04 17,7 C 17,2 C 13,9 C 86 % 1005,9 hPa 0,0 l/m 0 min 0 min 159 W/m 29,0 km/h (5 Bft) 95,83 %
01.07.2023 10:06 17,7 C 17,2 C 13,9 C 86 % 1005,8 hPa 0,0 l/m 0 min 0 min 143 W/m 32,2 km/h (5 Bft) 96,55 %
01.07.2023 10:08 17,7 C 17,2 C 13,9 C 86 % 1006,0 hPa 0,0 l/m 0 min 0 min 141 W/m 22,5 km/h (4 Bft) 94,44 %
01.07.2023 10:10 17,7 C 17,2 C 13,9 C 86 % 1005,9 hPa 0,0 l/m 0 min 0 min 144 W/m 25,7 km/h (4 Bft) 95,65 %
01.07.2023 10:12 17,7 C 17,2 C 13,9 C 86 % 1005,9 hPa 0,0 l/m 0 min 0 min 135 W/m 32,2 km/h (5 Bft) 95,74 %
01.07.2023 10:14 17,7 C 17,2 C 13,9 C 87 % 1005,8 hPa 0,0 l/m 0 min 0 min 119 W/m 25,7 km/h (4 Bft) 93,62 %
01.07.2023 10:16 17,7 C 17,2 C 13,9 C 86 % 1005,9 hPa 0,0 l/m 0 min 0 min 106 W/m 29,0 km/h (5 Bft) 95,74 %
01.07.2023 10:18 17,7 C 17,2 C 13,9 C 87 % 1005,9 hPa 0,0 l/m 0 min 0 min 105 W/m 16,1 km/h (3 Bft) 95,74 %
01.07.2023 10:20 17,7 C 17,2 C 13,9 C 87 % 1005,9 hPa 0,0 l/m 0 min 0 min 106 W/m 22,5 km/h (4 Bft) 93,62 %
01.07.2023 10:22 17,7 C 17,2 C 13,9 C 87 % 1005,9 hPa 0,0 l/m 0 min 0 min 103 W/m 32,2 km/h (5 Bft) 93,62 %
01.07.2023 10:24 17,7 C 17,2 C 13,3 C 87 % 1005,9 hPa 0,0 l/m 0 min 0 min 115 W/m 25,7 km/h (4 Bft) 95,65 %
01.07.2023 10:26 17,7 C 16,7 C 13,3 C 88 % 1005,8 hPa 0,0 l/m 0 min 0 min 113 W/m 38,6 km/h (5 Bft) 95,74 %
01.07.2023 10:28 17,7 C 16,7 C 13,3 C 88 % 1006,0 hPa 0,0 l/m 0 min 0 min 122 W/m 22,5 km/h (4 Bft) 95,74 %
01.07.2023 10:30 17,6 C 16,7 C 13,3 C 89 % 1006,0 hPa 0,0 l/m 0 min 0 min 153 W/m 32,2 km/h (5 Bft) 95,74 %
01.07.2023 10:32 17,6 C 17,2 C 13,3 C 89 % 1005,9 hPa 0,0 l/m 0 min 0 min 162 W/m 19,3 km/h (3 Bft) 95,74 %
01.07.2023 10:34 17,6 C 16,7 C 13,3 C 89 % 1006,0 hPa 0,0 l/m 0 min 0 min 157 W/m 22,5 km/h (4 Bft) 95,74 %
01.07.2023 10:36 17,6 C 16,7 C 13,3 C 90 % 1005,9 hPa 0,0 l/m 0 min 0 min 161 W/m 16,1 km/h (3 Bft) 97,87 %
01.07.2023 10:38 17,6 C 16,7 C 13,3 C 90 % 1005,9 hPa 0,0 l/m 0 min 2 min 135 W/m 12,9 km/h (3 Bft) 95,65 %
01.07.2023 10:40 17,6 C 16,7 C 12,8 C 91 % 1005,9 hPa 0,0 l/m 0 min 2 min 135 W/m 19,3 km/h (3 Bft) 100,00 %
01.07.2023 10:42 17,5 C 16,7 C 12,8 C 91 % 1005,9 hPa 0,0 l/m 0 min 2 min 117 W/m 22,5 km/h (4 Bft) 100,00 %
01.07.2023 10:44 17,5 C 16,7 C 12,8 C 91 % 1005,9 hPa 0,2 l/m 0 min 2 min 124 W/m 16,1 km/h (3 Bft) 100,00 %
01.07.2023 10:46 17,4 C 16,7 C 12,8 C 92 % 1005,8 hPa 0,0 l/m 0 min 2 min 107 W/m 32,2 km/h (5 Bft) 100,00 %
01.07.2023 10:48 17,4 C 16,1 C 12,8 C 92 % 1005,8 hPa 0,0 l/m 0 min 2 min 79 W/m 25,7 km/h (4 Bft) 97,87 %
01.07.2023 10:50 17,3 C 16,1 C 12,8 C 92 % 1005,8 hPa 0,0 l/m 0 min 0 min 107 W/m 29,0 km/h (5 Bft) 100,00 %
01.07.2023 10:52 17,3 C 16,7 C 12,8 C 92 % 1005,8 hPa 0,0 l/m 0 min 0 min 165 W/m 6,4 km/h (2 Bft) 100,00 %
01.07.2023 10:54 17,3 C 16,7 C 12,8 C 93 % 1005,8 hPa 0,0 l/m 0 min 0 min 201 W/m 16,1 km/h (3 Bft) 97,87 %
01.07.2023 10:56 17,3 C 16,7 C 12,8 C 93 % 1005,8 hPa 0,0 l/m 0 min 0 min 201 W/m 25,7 km/h (4 Bft) 100,00 %
01.07.2023 10:58 17,3 C 17,2 C 12,8 C 93 % 1005,7 hPa 0,0 l/m 0 min 0 min 214 W/m 12,9 km/h (3 Bft) 100,00 %
01.07.2023 11:00 17,4 C 17,2 C 12,8 C 93 % 1005,7 hPa 0,0 l/m 0 min 0 min 255 W/m 29,0 km/h (5 Bft) 100,00 %
01.07.2023 11:02 17,4 C 17,8 C 13,3 C 94 % 1005,6 hPa 0,0 l/m 0 min 0 min 304 W/m 19,3 km/h (3 Bft) 97,87 %
01.07.2023 11:04 17,6 C 17,8 C 13,3 C 94 % 1005,6 hPa 0,0 l/m 0 min 0 min 313 W/m 12,9 km/h (3 Bft) 100,00 %
01.07.2023 11:06 17,6 C 18,3 C 13,9 C 94 % 1005,6 hPa 0,0 l/m 0 min 0 min 345 W/m 25,7 km/h (4 Bft) 97,87 %
01.07.2023 11:08 17,7 C 18,3 C 13,9 C 94 % 1005,6 hPa 0,0 l/m 0 min 0 min 315 W/m 19,3 km/h (3 Bft) 97,87 %
01.07.2023 11:10 17,7 C 18,3 C 13,9 C 94 % 1005,6 hPa 0,0 l/m 0 min 0 min 251 W/m 12,9 km/h (3 Bft) 97,87 %
01.07.2023 11:12 17,8 C 18,3 C 13,9 C 94 % 1005,6 hPa 0,0 l/m 0 min 0 min 220 W/m 19,3 km/h (3 Bft) 95,74 %
01.07.2023 11:14 17,8 C 18,3 C 13,9 C 94 % 1005,6 hPa 0,0 l/m 0 min 0 min 203 W/m 29,0 km/h (5 Bft) 97,87 %
01.07.2023 11:16 17,8 C 17,8 C 13,9 C 94 % 1005,6 hPa 0,0 l/m 0 min 0 min 152 W/m 19,3 km/h (3 Bft) 95,74 %
01.07.2023 11:18 17,8 C 17,8 C 13,9 C 94 % 1005,6 hPa 0,0 l/m 0 min 2 min 110 W/m 19,3 km/h (3 Bft) 95,65 %
01.07.2023 11:20 17,8 C 17,8 C 13,9 C 94 % 1005,6 hPa 0,0 l/m 0 min 2 min 78 W/m 19,3 km/h (3 Bft) 97,87 %
01.07.2023 11:22 17,8 C 17,2 C 13,9 C 94 % 1005,6 hPa 0,0 l/m 0 min 0 min 74 W/m 22,5 km/h (4 Bft) 97,87 %
01.07.2023 11:24 17,8 C 17,2 C 13,9 C 94 % 1005,6 hPa 0,0 l/m 0 min 0 min 87 W/m 16,1 km/h (3 Bft) 97,87 %
01.07.2023 11:26 17,8 C 17,2 C 13,3 C 94 % 1005,5 hPa 0,2 l/m 0 min 2 min 86 W/m 6,4 km/h (2 Bft) 97,87 %
01.07.2023 11:28 17,8 C 17,2 C 13,3 C 94 % 1005,5 hPa 0,0 l/m 0 min 2 min 82 W/m 16,1 km/h (3 Bft) 97,87 %
01.07.2023 11:30 17,8 C 17,2 C 13,3 C 94 % 1005,6 hPa 0,0 l/m 0 min 0 min 79 W/m 16,1 km/h (3 Bft) 97,87 %
01.07.2023 11:32 17,8 C 17,2 C 13,3 C 94 % 1005,5 hPa 0,0 l/m 0 min 0 min 80 W/m 16,1 km/h (3 Bft) 95,65 %
01.07.2023 11:34 17,8 C 17,2 C 13,3 C 93 % 1005,5 hPa 0,0 l/m 0 min 0 min 90 W/m 16,1 km/h (3 Bft) 95,74 %
01.07.2023 11:36 17,8 C 17,2 C 13,3 C 93 % 1005,6 hPa 0,0 l/m 0 min 0 min 94 W/m 19,3 km/h (3 Bft) 97,87 %
01.07.2023 11:38 17,8 C 17,2 C 13,3 C 93 % 1005,6 hPa 0,0 l/m 0 min 0 min 105 W/m 22,5 km/h (4 Bft) 97,87 %
01.07.2023 11:40 17,7 C 17,2 C 13,3 C 93 % 1005,5 hPa 0,0 l/m 0 min 0 min 126 W/m 12,9 km/h (3 Bft) 97,87 %
01.07.2023 11:42 17,8 C 17,2 C 13,3 C 93 % 1005,6 hPa 0,0 l/m 0 min 0 min 122 W/m 22,5 km/h (4 Bft) 97,87 %
01.07.2023 11:44 17,8 C 17,2 C 13,3 C 93 % 1005,6 hPa 0,0 l/m 0 min 0 min 119 W/m 22,5 km/h (4 Bft) 97,87 %
01.07.2023 11:46 17,7 C 17,2 C 13,3 C 93 % 1005,5 hPa 0,0 l/m 0 min 0 min 129 W/m 25,7 km/h (4 Bft) 97,83 %
01.07.2023 11:48 17,7 C 17,2 C 13,3 C 93 % 1005,5 hPa 0,0 l/m 0 min 0 min 144 W/m 19,3 km/h (3 Bft) 97,87 %
01.07.2023 11:50 17,7 C 17,2 C 13,3 C 93 % 1005,5 hPa 0,0 l/m 0 min 2 min 153 W/m 25,7 km/h (4 Bft) 95,74 %
01.07.2023 11:52 17,7 C 17,2 C 13,3 C 93 % 1005,5 hPa 0,0 l/m 0 min 2 min 145 W/m 19,3 km/h (3 Bft) 95,74 %
01.07.2023 11:54 17,8 C 17,2 C 13,3 C 93 % 1005,5 hPa 0,0 l/m 0 min 0 min 147 W/m 16,1 km/h (3 Bft) 100,00 %
01.07.2023 11:56 17,8 C 17,2 C 13,3 C 93 % 1005,4 hPa 0,0 l/m 0 min 2 min 136 W/m 16,1 km/h (3 Bft) 97,87 %
01.07.2023 11:58 17,8 C 17,2 C 13,3 C 93 % 1005,4 hPa 0,0 l/m 0 min 2 min 137 W/m 12,9 km/h (3 Bft) 100,00 %
01.07.2023 12:00 17,8 C 17,2 C 13,3 C 93 % 1005,4 hPa 0,0 l/m 0 min 2 min 161 W/m 29,0 km/h (5 Bft) 100,00 %
01.07.2023 12:02 17,8 C 17,2 C 13,3 C 93 % 1005,5 hPa 0,0 l/m 0 min 0 min 171 W/m 32,2 km/h (5 Bft) 95,74 %
01.07.2023 12:04 17,8 C 17,2 C 13,3 C 93 % 1005,4 hPa 0,0 l/m 0 min 0 min 176 W/m 25,7 km/h (4 Bft) 97,96 %
01.07.2023 12:07 17,8 C 17,2 C 13,3 C 93 % 1005,4 hPa 0,0 l/m 0 min 0 min 169 W/m 19,3 km/h (3 Bft) 97,14 %
01.07.2023 12:08 17,8 C 17,8 C 13,3 C 94 % 1005,4 hPa 0,0 l/m 0 min 0 min 180 W/m 22,5 km/h (4 Bft) 100,00 %
01.07.2023 12:12 17,8 C 17,8 C 13,3 C 94 % 1005,3 hPa 0,0 l/m 0 min 4 min 159 W/m 12,9 km/h (3 Bft) 96,43 %
01.07.2023 12:14 17,9 C 17,8 C 13,3 C 94 % 1005,3 hPa 0,0 l/m 0 min 0 min 166 W/m 16,1 km/h (3 Bft) 95,74 %
01.07.2023 12:16 17,9 C 17,8 C 13,3 C 94 % 1005,4 hPa 0,0 l/m 0 min 2 min 154 W/m 19,3 km/h (3 Bft) 97,83 %
01.07.2023 12:18 17,9 C 17,2 C 13,3 C 94 % 1005,4 hPa 0,0 l/m 0 min 0 min 147 W/m 22,5 km/h (4 Bft) 97,87 %
01.07.2023 12:20 17,9 C 17,2 C 13,3 C 94 % 1005,2 hPa 0,0 l/m 0 min 2 min 179 W/m 22,5 km/h (4 Bft) 97,87 %
01.07.2023 12:22 17,9 C 17,2 C 13,3 C 94 % 1005,2 hPa 0,0 l/m 0 min 0 min 162 W/m 12,9 km/h (3 Bft) 95,74 %
01.07.2023 12:24 17,9 C 17,2 C 13,3 C 94 % 1005,2 hPa 0,0 l/m 0 min 0 min 161 W/m 6,4 km/h (2 Bft) 97,87 %
01.07.2023 12:26 17,9 C 17,2 C 13,3 C 94 % 1005,2 hPa 0,0 l/m 0 min 0 min 171 W/m 19,3 km/h (3 Bft) 95,74 %
01.07.2023 12:28 17,9 C 17,2 C 13,3 C 94 % 1005,2 hPa 0,0 l/m 0 min 0 min 163 W/m 25,7 km/h (4 Bft) 97,87 %
01.07.2023 12:30 17,9 C 17,2 C 13,3 C 94 % 1005,4 hPa 0,0 l/m 0 min 0 min 154 W/m 16,1 km/h (3 Bft) 97,83 %
01.07.2023 12:32 17,9 C 17,2 C 13,3 C 95 % 1005,2 hPa 0,0 l/m 0 min 0 min 156 W/m 16,1 km/h (3 Bft) 95,74 %
01.07.2023 12:34 17,9 C 17,2 C 13,3 C 95 % 1005,2 hPa 0,0 l/m 0 min 0 min 147 W/m 16,1 km/h (3 Bft) 97,87 %
01.07.2023 12:36 17,9 C 17,8 C 13,3 C 95 % 1005,2 hPa 0,0 l/m 0 min 0 min 142 W/m 9,7 km/h (2 Bft) 100,00 %
01.07.2023 12:38 17,9 C 17,8 C 13,3 C 95 % 1005,2 hPa 0,0 l/m 0 min 0 min 158 W/m 32,2 km/h (5 Bft) 95,74 %
01.07.2023 12:40 17,9 C 17,8 C 13,3 C 95 % 1005,2 hPa 0,0 l/m 0 min 0 min 140 W/m 29,0 km/h (5 Bft) 100,00 %
01.07.2023 12:42 17,9 C 17,8 C 13,3 C 95 % 1005,1 hPa 0,0 l/m 0 min 0 min 143 W/m 19,3 km/h (3 Bft) 100,00 %
01.07.2023 12:44 17,8 C 17,8 C 13,3 C 95 % 1005,2 hPa 0,0 l/m 0 min 0 min 142 W/m 19,3 km/h (3 Bft) 97,83 %
01.07.2023 12:46 17,8 C 17,8 C 13,3 C 95 % 1005,2 hPa 0,0 l/m 0 min 0 min 149 W/m 32,2 km/h (5 Bft) 95,74 %
01.07.2023 12:48 17,8 C 17,8 C 13,3 C 95 % 1005,1 hPa 0,0 l/m 0 min 0 min 138 W/m 16,1 km/h (3 Bft) 97,87 %
01.07.2023 12:50 17,9 C 17,8 C 13,3 C 95 % 1005,2 hPa 0,0 l/m 0 min 0 min 151 W/m 25,7 km/h (4 Bft) 97,87 %
01.07.2023 12:52 17,9 C 17,8 C 13,3 C 95 % 1005,1 hPa 0,0 l/m 0 min 0 min 119 W/m 22,5 km/h (4 Bft) 97,87 %
01.07.2023 12:54 17,9 C 17,8 C 13,9 C 95 % 1005,1 hPa 0,0 l/m 0 min 0 min 95 W/m 16,1 km/h (3 Bft) 95,74 %
01.07.2023 12:56 17,9 C 17,8 C 13,3 C 95 % 1005,1 hPa 0,0 l/m 0 min 0 min 103 W/m 12,9 km/h (3 Bft) 97,83 %
01.07.2023 12:58 17,9 C 17,8 C 13,3 C 95 % 1005,1 hPa 0,0 l/m 0 min 0 min 146 W/m 16,1 km/h (3 Bft) 97,87 %
01.07.2023 13:00 17,9 C 17,8 C 13,9 C 95 % 1005,2 hPa 0,0 l/m 0 min 0 min 173 W/m 22,5 km/h (4 Bft) 97,87 %
01.07.2023 13:02 18,0 C 17,8 C 13,9 C 95 % 1005,1 hPa 0,0 l/m 0 min 0 min 178 W/m 19,3 km/h (3 Bft) 97,87 %
01.07.2023 13:04 18,1 C 18,3 C 13,9 C 95 % 1005,1 hPa 0,0 l/m 0 min 0 min 160 W/m 16,1 km/h (3 Bft) 97,87 %
01.07.2023 13:06 18,1 C 18,3 C 13,9 C 95 % 1005,1 hPa 0,0 l/m 0 min 0 min 143 W/m 19,3 km/h (3 Bft) 95,92 %
01.07.2023 13:08 18,1 C 18,3 C 14,4 C 95 % 1005,1 hPa 0,0 l/m 0 min 0 min 133 W/m 12,9 km/h (3 Bft) 97,87 %
01.07.2023 13:10 18,1 C 18,3 C 14,4 C 95 % 1005,1 hPa 0,0 l/m 0 min 0 min 135 W/m 19,3 km/h (3 Bft) 97,83 %
01.07.2023 13:12 18,1 C 18,3 C 14,4 C 95 % 1005,1 hPa 0,0 l/m 0 min 0 min 126 W/m 19,3 km/h (3 Bft) 97,87 %
01.07.2023 13:14 18,2 C 18,3 C 14,4 C 94 % 1005,0 hPa 0,0 l/m 0 min 0 min 129 W/m 12,9 km/h (3 Bft) 97,87 %
01.07.2023 13:16 18,2 C 18,3 C 14,4 C 94 % 1005,0 hPa 0,0 l/m 0 min 0 min 159 W/m 12,9 km/h (3 Bft) 97,87 %
01.07.2023 13:18 18,2 C 18,3 C 14,4 C 94 % 1005,0 hPa 0,0 l/m 0 min 0 min 199 W/m 19,3 km/h (3 Bft) 97,87 %
01.07.2023 13:20 18,3 C 18,3 C 14,4 C 94 % 1005,0 hPa 0,0 l/m 0 min 0 min 189 W/m 19,3 km/h (3 Bft) 97,87 %
01.07.2023 13:22 18,3 C 18,3 C 15,0 C 94 % 1005,1 hPa 0,0 l/m 0 min 0 min 176 W/m 16,1 km/h (3 Bft) 97,87 %
01.07.2023 13:24 18,4 C 18,3 C 15,0 C 94 % 1005,0 hPa 0,0 l/m 0 min 0 min 163 W/m 19,3 km/h (3 Bft) 97,83 %
01.07.2023 13:26 18,4 C 18,3 C 15,0 C 93 % 1005,0 hPa 0,0 l/m 0 min 0 min 154 W/m 25,7 km/h (4 Bft) 97,87 %
01.07.2023 13:28 18,4 C 18,3 C 15,0 C 93 % 1005,0 hPa 0,0 l/m 0 min 0 min 159 W/m 16,1 km/h (3 Bft) 97,87 %
01.07.2023 13:30 18,6 C 18,9 C 15,0 C 93 % 1005,0 hPa 0,0 l/m 0 min 0 min 227 W/m 16,1 km/h (3 Bft) 97,87 %
01.07.2023 13:32 18,6 C 18,9 C 15,0 C 92 % 1005,0 hPa 0,0 l/m 0 min 0 min 217 W/m 25,7 km/h (4 Bft) 97,87 %
01.07.2023 13:34 18,6 C 18,9 C 15,0 C 92 % 1005,0 hPa 0,0 l/m 0 min 0 min 244 W/m 16,1 km/h (3 Bft) 95,74 %
01.07.2023 13:36 18,7 C 18,9 C 15,6 C 92 % 1004,9 hPa 0,0 l/m 0 min 0 min 250 W/m 6,4 km/h (2 Bft) 100,00 %
01.07.2023 13:38 18,8 C 18,9 C 15,6 C 92 % 1004,9 hPa 0,0 l/m 0 min 0 min 197 W/m 16,1 km/h (3 Bft) 97,83 %
01.07.2023 13:40 18,9 C 18,9 C 15,6 C 92 % 1004,9 hPa 0,0 l/m 0 min 0 min 170 W/m 16,1 km/h (3 Bft) 100,00 %
01.07.2023 13:42 18,9 C 18,9 C 15,6 C 92 % 1004,8 hPa 0,0 l/m 0 min 0 min 126 W/m 22,5 km/h (4 Bft) 100,00 %
01.07.2023 13:44 18,9 C 18,9 C 15,6 C 91 % 1005,0 hPa 0,0 l/m 0 min 0 min 97 W/m 32,2 km/h (5 Bft) 97,87 %
01.07.2023 13:46 18,9 C 18,9 C 15,6 C 90 % 1005,0 hPa 0,0 l/m 0 min 0 min 122 W/m 25,7 km/h (4 Bft) 100,00 %
01.07.2023 13:48 18,9 C 18,9 C 15,0 C 90 % 1004,9 hPa 0,0 l/m 0 min 0 min 144 W/m 29,0 km/h (5 Bft) 100,00 %
01.07.2023 13:50 19,0 C 18,9 C 15,0 C 90 % 1005,0 hPa 0,0 l/m 0 min 0 min 148 W/m 16,1 km/h (3 Bft) 100,00 %
01.07.2023 13:52 19,1 C 18,9 C 15,6 C 90 % 1005,1 hPa 0,0 l/m 0 min 0 min 194 W/m 32,2 km/h (5 Bft) 97,83 %
01.07.2023 13:54 19,1 C 18,9 C 15,6 C 89 % 1004,9 hPa 0,0 l/m 0 min 0 min 185 W/m 29,0 km/h (5 Bft) 97,87 %
01.07.2023 13:56 19,2 C 18,9 C 15,6 C 89 % 1004,9 hPa 0,0 l/m 0 min 0 min 166 W/m 29,0 km/h (5 Bft) 95,74 %
01.07.2023 13:58 19,2 C 18,9 C 15,6 C 89 % 1005,0 hPa 0,0 l/m 0 min 0 min 203 W/m 41,8 km/h (6 Bft) 95,74 %
01.07.2023 14:00 19,2 C 18,9 C 15,6 C 89 % 1004,9 hPa 0,0 l/m 0 min 0 min 187 W/m 16,1 km/h (3 Bft) 95,74 %
01.07.2023 14:02 19,3 C 19,4 C 15,6 C 89 % 1005,0 hPa 0,0 l/m 0 min 0 min 265 W/m 25,7 km/h (4 Bft) 95,74 %
01.07.2023 14:04 19,3 C 19,4 C 15,6 C 89 % 1004,9 hPa 0,0 l/m 0 min 0 min 324 W/m 48,3 km/h (6 Bft) 95,74 %
01.07.2023 14:06 19,3 C 19,4 C 15,6 C 89 % 1004,9 hPa 0,0 l/m 0 min 0 min 265 W/m 12,9 km/h (3 Bft) 93,62 %
01.07.2023 14:08 19,4 C 19,4 C 16,1 C 89 % 1004,9 hPa 0,0 l/m 0 min 0 min 271 W/m 19,3 km/h (3 Bft) 95,65 %
01.07.2023 14:10 19,4 C 19,4 C 16,1 C 89 % 1005,0 hPa 0,0 l/m 0 min 0 min 252 W/m 9,7 km/h (2 Bft) 93,62 %
01.07.2023 14:12 19,5 C 19,4 C 16,1 C 89 % 1004,9 hPa 0,0 l/m 0 min 0 min 233 W/m 22,5 km/h (4 Bft) 95,74 %
01.07.2023 14:14 19,5 C 19,4 C 16,1 C 88 % 1004,9 hPa 0,0 l/m 0 min 0 min 262 W/m 16,1 km/h (3 Bft) 95,74 %
01.07.2023 14:16 19,6 C 20,0 C 16,1 C 89 % 1004,9 hPa 0,0 l/m 0 min 0 min 242 W/m 12,9 km/h (3 Bft) 95,74 %
01.07.2023 14:18 19,7 C 19,4 C 16,1 C 89 % 1004,9 hPa 0,0 l/m 0 min 0 min 184 W/m 12,9 km/h (3 Bft) 95,74 %
01.07.2023 14:20 19,7 C 20,0 C 16,1 C 88 % 1004,9 hPa 0,0 l/m 0 min 0 min 187 W/m 25,7 km/h (4 Bft) 95,74 %
01.07.2023 14:22 19,8 C 20,0 C 16,1 C 88 % 1004,8 hPa 0,0 l/m 0 min 0 min 220 W/m 19,3 km/h (3 Bft) 95,65 %
01.07.2023 14:24 19,8 C 20,0 C 16,1 C 88 % 1004,9 hPa 0,0 l/m 0 min 0 min 237 W/m 19,3 km/h (3 Bft) 95,74 %
01.07.2023 14:26 19,8 C 20,0 C 16,1 C 87 % 1004,8 hPa 0,0 l/m 0 min 0 min 187 W/m 32,2 km/h (5 Bft) 93,62 %
01.07.2023 14:28 19,9 C 20,0 C 16,1 C 87 % 1004,8 hPa 0,0 l/m 0 min 0 min 199 W/m 19,3 km/h (3 Bft) 95,74 %
01.07.2023 14:30 19,9 C 20,0 C 16,1 C 87 % 1004,8 hPa 0,0 l/m 0 min 0 min 210 W/m 32,2 km/h (5 Bft) 93,62 %
01.07.2023 14:32 20,0 C 20,0 C 16,1 C 87 % 1004,8 hPa 0,0 l/m 0 min 0 min 194 W/m 22,5 km/h (4 Bft) 97,87 %
01.07.2023 14:34 20,1 C 20,0 C 16,1 C 87 % 1004,8 hPa 0,0 l/m 0 min 0 min 231 W/m 32,2 km/h (5 Bft) 95,74 %
01.07.2023 14:36 20,1 C 20,0 C 16,7 C 86 % 1004,8 hPa 0,0 l/m 0 min 0 min 248 W/m 16,1 km/h (3 Bft) 97,83 %
01.07.2023 14:38 20,1 C 20,6 C 16,7 C 86 % 1004,8 hPa 0,0 l/m 0 min 0 min 335 W/m 25,7 km/h (4 Bft) 97,87 %
01.07.2023 14:40 20,2 C 20,6 C 16,7 C 86 % 1004,8 hPa 0,0 l/m 0 min 0 min 319 W/m 19,3 km/h (3 Bft) 97,87 %
01.07.2023 14:42 20,3 C 20,6 C 16,7 C 86 % 1004,8 hPa 0,0 l/m 0 min 0 min 331 W/m 22,5 km/h (4 Bft) 100,00 %
01.07.2023 14:44 20,3 C 20,6 C 16,7 C 86 % 1004,8 hPa 0,0 l/m 0 min 0 min 381 W/m 32,2 km/h (5 Bft) 100,00 %
01.07.2023 14:46 20,4 C 20,6 C 17,2 C 86 % 1004,8 hPa 0,0 l/m 0 min 0 min 312 W/m 16,1 km/h (3 Bft) 100,00 %
01.07.2023 14:48 20,5 C 20,6 C 17,2 C 85 % 1004,8 hPa 0,0 l/m 0 min 0 min 284 W/m 22,5 km/h (4 Bft) 100,00 %
01.07.2023 14:50 20,6 C 20,6 C 17,2 C 85 % 1004,8 hPa 0,0 l/m 0 min 0 min 288 W/m 32,2 km/h (5 Bft) 100,00 %
01.07.2023 14:52 20,6 C 21,1 C 17,2 C 85 % 1004,8 hPa 0,0 l/m 0 min 0 min 337 W/m 25,7 km/h (4 Bft) 100,00 %
01.07.2023 14:54 20,6 C 22,2 C 17,2 C 86 % 1004,8 hPa 0,0 l/m 2 min 0 min 436 W/m 19,3 km/h (3 Bft) 100,00 %
01.07.2023 14:56 20,8 C 24,4 C 17,8 C 86 % 1004,8 hPa 0,0 l/m 2 min 0 min 656 W/m 19,3 km/h (3 Bft) 100,00 %
01.07.2023 14:58 21,0 C 25,0 C 17,8 C 86 % 1004,8 hPa 0,0 l/m 2 min 0 min 656 W/m 25,7 km/h (4 Bft) 100,00 %
01.07.2023 15:00 21,2 C 23,9 C 17,8 C 85 % 1004,7 hPa 0,0 l/m 2 min 0 min 492 W/m 16,1 km/h (3 Bft) 100,00 %
01.07.2023 15:02 21,4 C 23,3 C 17,8 C 85 % 1004,7 hPa 0,0 l/m 2 min 0 min 431 W/m 16,1 km/h (3 Bft) 97,87 %
01.07.2023 15:04 21,5 C 24,4 C 17,8 C 84 % 1004,7 hPa 0,0 l/m 0 min 0 min 320 W/m 19,3 km/h (3 Bft) 100,00 %
01.07.2023 15:06 21,6 C 23,9 C 18,3 C 84 % 1004,7 hPa 0,0 l/m 0 min 0 min 337 W/m 22,5 km/h (4 Bft) 100,00 %
01.07.2023 15:08 21,7 C 23,9 C 18,3 C 83 % 1004,6 hPa 0,0 l/m 0 min 0 min 370 W/m 25,7 km/h (4 Bft) 100,00 %
01.07.2023 15:10 21,8 C 23,3 C 18,3 C 83 % 1004,6 hPa 0,0 l/m 0 min 0 min 398 W/m 16,1 km/h (3 Bft) 97,87 %
01.07.2023 15:12 21,8 C 22,8 C 18,3 C 82 % 1004,6 hPa 0,0 l/m 0 min 0 min 351 W/m 16,1 km/h (3 Bft) 95,65 %
01.07.2023 15:14 21,8 C 22,2 C 18,3 C 82 % 1004,6 hPa 0,0 l/m 0 min 0 min 309 W/m 19,3 km/h (3 Bft) 100,00 %
01.07.2023 15:16 21,8 C 22,2 C 17,8 C 82 % 1004,6 hPa 0,0 l/m 0 min 0 min 256 W/m 35,4 km/h (5 Bft) 97,87 %
01.07.2023 15:18 21,8 C 22,2 C 17,8 C 81 % 1004,6 hPa 0,0 l/m 0 min 0 min 268 W/m 25,7 km/h (4 Bft) 100,00 %
01.07.2023 15:20 21,7 C 22,2 C 17,8 C 81 % 1004,6 hPa 0,0 l/m 0 min 0 min 338 W/m 25,7 km/h (4 Bft) 100,00 %
01.07.2023 15:22 21,7 C 22,8 C 17,8 C 82 % 1004,6 hPa 0,0 l/m 2 min 0 min 416 W/m 19,3 km/h (3 Bft) 100,00 %
01.07.2023 15:24 21,8 C 23,9 C 18,3 C 82 % 1004,6 hPa 0,0 l/m 2 min 0 min 445 W/m 35,4 km/h (5 Bft) 100,00 %
01.07.2023 15:26 21,9 C 25,0 C 18,3 C 81 % 1004,6 hPa 0,0 l/m 2 min 0 min 475 W/m 41,8 km/h (6 Bft) 100,00 %
01.07.2023 15:28 22,0 C 24,4 C 18,3 C 80 % 1004,5 hPa 0,0 l/m 2 min 0 min 805 W/m 35,4 km/h (5 Bft) 100,00 %
01.07.2023 15:30 22,0 C 23,3 C 18,3 C 80 % 1004,5 hPa 0,0 l/m 2 min 0 min 850 W/m 61,2 km/h (7 Bft) 95,74 %
01.07.2023 15:32 22,0 C 23,9 C 18,3 C 80 % 1004,4 hPa 0,0 l/m 0 min 0 min 350 W/m 19,3 km/h (3 Bft) 100,00 %
01.07.2023 15:34 22,1 C 23,9 C 18,3 C 80 % 1004,4 hPa 0,0 l/m 2 min 0 min 413 W/m 16,1 km/h (3 Bft) 100,00 %
01.07.2023 15:36 22,1 C 23,3 C 18,3 C 80 % 1004,5 hPa 0,0 l/m 2 min 0 min 395 W/m 32,2 km/h (5 Bft) 97,87 %
01.07.2023 15:38 22,1 C 22,8 C 18,3 C 79 % 1004,5 hPa 0,0 l/m 0 min 0 min 328 W/m 22,5 km/h (4 Bft) 100,00 %
01.07.2023 15:40 22,1 C 23,9 C 18,3 C 80 % 1004,4 hPa 0,0 l/m 2 min 0 min 573 W/m 9,7 km/h (2 Bft) 97,87 %
01.07.2023 15:42 22,1 C 23,3 C 18,3 C 81 % 1004,3 hPa 0,0 l/m 2 min 0 min 562 W/m 16,1 km/h (3 Bft) 100,00 %
01.07.2023 15:44 22,1 C 22,8 C 18,3 C 80 % 1004,4 hPa 0,0 l/m 0 min 0 min 230 W/m 38,6 km/h (5 Bft) 100,00 %
01.07.2023 15:46 22,1 C 22,2 C 18,3 C 80 % 1004,4 hPa 0,0 l/m 0 min 0 min 240 W/m 22,5 km/h (4 Bft) 100,00 %
01.07.2023 15:48 22,1 C 22,2 C 18,3 C 80 % 1004,4 hPa 0,0 l/m 0 min 0 min 239 W/m 19,3 km/h (3 Bft) 100,00 %
01.07.2023 15:50 22,1 C 22,2 C 18,3 C 80 % 1004,4 hPa 0,0 l/m 0 min 0 min 298 W/m 12,9 km/h (3 Bft) 97,87 %
01.07.2023 15:52 22,2 C 22,8 C 18,3 C 80 % 1004,4 hPa 0,0 l/m 2 min 0 min 411 W/m 22,5 km/h (4 Bft) 100,00 %
01.07.2023 15:54 22,2 C 23,3 C 18,3 C 80 % 1004,3 hPa 0,0 l/m 2 min 0 min 487 W/m 19,3 km/h (3 Bft) 100,00 %
01.07.2023 15:56 22,3 C 23,9 C 18,3 C 80 % 1004,3 hPa 0,0 l/m 2 min 0 min 403 W/m 22,5 km/h (4 Bft) 97,87 %
01.07.2023 15:58 22,4 C 23,9 C 18,9 C 80 % 1004,2 hPa 0,0 l/m 2 min 0 min 408 W/m 19,3 km/h (3 Bft) 97,87 %
01.07.2023 16:00 22,6 C 23,9 C 18,9 C 80 % 1004,4 hPa 0,0 l/m 2 min 0 min 376 W/m 16,1 km/h (3 Bft) 95,65 %
01.07.2023 16:02 22,6 C 23,3 C 18,9 C 79 % 1004,3 hPa 0,0 l/m 0 min 0 min 324 W/m 12,9 km/h (3 Bft) 93,62 %
01.07.2023 16:04 22,7 C 24,4 C 18,9 C 79 % 1004,3 hPa 0,0 l/m 0 min 0 min 345 W/m 19,3 km/h (3 Bft) 96,00 %
01.07.2023 16:06 22,8 C 24,4 C 18,9 C 79 % 1004,3 hPa 0,0 l/m 0 min 0 min 335 W/m 25,7 km/h (4 Bft) 95,83 %
01.07.2023 16:08 22,8 C 24,4 C 18,9 C 79 % 1004,3 hPa 0,0 l/m 0 min 0 min 325 W/m 25,7 km/h (4 Bft) 94,59 %
01.07.2023 16:10 22,8 C 23,3 C 18,9 C 78 % 1004,3 hPa 0,0 l/m 0 min 0 min 304 W/m 22,5 km/h (4 Bft) 95,74 %
01.07.2023 16:12 22,8 C 23,3 C 18,9 C 78 % 1004,3 hPa 0,0 l/m 0 min 0 min 248 W/m 22,5 km/h (4 Bft) 95,74 %
01.07.2023 16:14 22,8 C 22,8 C 18,9 C 78 % 1004,3 hPa 0,0 l/m 0 min 0 min 238 W/m 19,3 km/h (3 Bft) 95,74 %
01.07.2023 16:16 22,7 C 22,2 C 18,9 C 78 % 1004,3 hPa 0,0 l/m 0 min 0 min 220 W/m 19,3 km/h (3 Bft) 93,62 %
01.07.2023 16:18 22,7 C 22,2 C 18,3 C 78 % 1004,2 hPa 0,0 l/m 0 min 0 min 210 W/m 16,1 km/h (3 Bft) 95,74 %
01.07.2023 16:20 22,7 C 22,2 C 18,3 C 78 % 1004,3 hPa 0,0 l/m 0 min 0 min 237 W/m 22,5 km/h (4 Bft) 95,74 %
01.07.2023 16:22 22,7 C 23,9 C 18,3 C 79 % 1004,3 hPa 0,0 l/m 0 min 0 min 267 W/m 16,1 km/h (3 Bft) 95,65 %
01.07.2023 16:24 22,8 C 25,0 C 18,9 C 79 % 1004,3 hPa 0,0 l/m 0 min 0 min 280 W/m 16,1 km/h (3 Bft) 95,65 %
01.07.2023 16:26 22,9 C 24,4 C 18,9 C 78 % 1004,3 hPa 0,0 l/m 2 min 0 min 781 W/m 16,1 km/h (3 Bft) 95,74 %
01.07.2023 16:28 23,0 C 23,9 C 18,9 C 78 % 1004,3 hPa 0,0 l/m 0 min 0 min 232 W/m 16,1 km/h (3 Bft) 93,62 %
01.07.2023 16:30 23,1 C 24,4 C 18,9 C 77 % 1004,2 hPa 0,2 l/m 0 min 0 min 246 W/m 19,3 km/h (3 Bft) 91,49 %
01.07.2023 16:32 23,1 C 24,4 C 18,9 C 77 % 1004,3 hPa 0,0 l/m 0 min 0 min 295 W/m 16,1 km/h (3 Bft) 93,62 %
01.07.2023 16:34 23,1 C 23,9 C 18,9 C 75 % 1004,2 hPa 0,0 l/m 0 min 0 min 304 W/m 29,0 km/h (5 Bft) 95,74 %
01.07.2023 16:36 23,2 C 23,9 C 18,9 C 75 % 1004,2 hPa 0,0 l/m 0 min 0 min 291 W/m 16,1 km/h (3 Bft) 93,48 %
01.07.2023 16:38 23,2 C 23,3 C 18,9 C 74 % 1004,3 hPa 0,0 l/m 0 min 0 min 256 W/m 25,7 km/h (4 Bft) 93,62 %
01.07.2023 16:40 23,1 C 22,8 C 18,9 C 72 % 1004,3 hPa 0,0 l/m 0 min 0 min 222 W/m 22,5 km/h (4 Bft) 95,74 %
01.07.2023 16:42 22,9 C 22,8 C 18,9 C 72 % 1004,5 hPa 0,0 l/m 0 min 0 min 197 W/m 19,3 km/h (3 Bft) 95,74 %
01.07.2023 16:44 22,9 C 22,2 C 18,9 C 73 % 1004,5 hPa 0,0 l/m 0 min 0 min 188 W/m 12,9 km/h (3 Bft) 95,74 %
01.07.2023 16:46 22,8 C 22,2 C 18,3 C 74 % 1004,5 hPa 0,0 l/m 0 min 0 min 191 W/m 19,3 km/h (3 Bft) 95,74 %
01.07.2023 16:48 22,8 C 22,2 C 18,3 C 74 % 1004,5 hPa 0,0 l/m 0 min 0 min 193 W/m 12,9 km/h (3 Bft) 91,49 %
01.07.2023 16:50 22,7 C 22,2 C 18,3 C 75 % 1004,5 hPa 0,0 l/m 0 min 0 min 180 W/m 19,3 km/h (3 Bft) 95,65 %
01.07.2023 16:52 22,7 C 22,2 C 18,3 C 75 % 1004,6 hPa 0,0 l/m 0 min 0 min 172 W/m 19,3 km/h (3 Bft) 95,74 %
01.07.2023 16:54 22,6 C 21,7 C 18,3 C 76 % 1004,6 hPa 0,0 l/m 0 min 0 min 144 W/m 19,3 km/h (3 Bft) 95,74 %
01.07.2023 16:56 22,4 C 21,7 C 17,8 C 76 % 1004,6 hPa 0,0 l/m 0 min 0 min 105 W/m 19,3 km/h (3 Bft) 97,87 %
01.07.2023 16:58 22,3 C 21,1 C 17,8 C 77 % 1004,7 hPa 0,0 l/m 0 min 0 min 75 W/m 19,3 km/h (3 Bft) 97,87 %
01.07.2023 17:00 22,1 C 21,1 C 17,8 C 77 % 1004,8 hPa 0,0 l/m 0 min 0 min 70 W/m 16,1 km/h (3 Bft) 97,87 %
01.07.2023 17:02 21,9 C 20,6 C 17,2 C 78 % 1004,8 hPa 0,0 l/m 0 min 2 min 60 W/m 19,3 km/h (3 Bft) 95,74 %
01.07.2023 17:04 21,8 C 20,6 C 17,2 C 79 % 1004,8 hPa 0,0 l/m 0 min 0 min 68 W/m 19,3 km/h (3 Bft) 93,75 %
01.07.2023 17:06 21,6 C 20,6 C 17,2 C 79 % 1004,9 hPa 0,0 l/m 0 min 0 min 69 W/m 25,7 km/h (4 Bft) 97,87 %
01.07.2023 17:08 21,4 C 20,6 C 17,2 C 79 % 1004,8 hPa 0,0 l/m 0 min 2 min 70 W/m 12,9 km/h (3 Bft) 98,15 %
01.07.2023 17:10 21,3 C 20,0 C 16,7 C 80 % 1004,8 hPa 0,0 l/m 0 min 0 min 71 W/m 25,7 km/h (4 Bft) 97,87 %
01.07.2023 17:12 21,2 C 20,0 C 16,7 C 79 % 1004,9 hPa 0,0 l/m 0 min 0 min 77 W/m 19,3 km/h (3 Bft) 100,00 %
01.07.2023 17:14 21,1 C 20,0 C 16,7 C 79 % 1004,9 hPa 0,0 l/m 0 min 0 min 77 W/m 16,1 km/h (3 Bft) 100,00 %
01.07.2023 17:16 21,1 C 20,0 C 16,7 C 80 % 1004,9 hPa 0,0 l/m 0 min 0 min 77 W/m 12,9 km/h (3 Bft) 97,87 %
01.07.2023 17:18 20,9 C 20,0 C 16,7 C 79 % 1004,9 hPa 0,0 l/m 0 min 0 min 83 W/m 12,9 km/h (3 Bft) 97,87 %
01.07.2023 17:20 20,9 C 20,0 C 16,7 C 79 % 1004,9 hPa 0,0 l/m 0 min 0 min 100 W/m 22,5 km/h (4 Bft) 100,00 %
01.07.2023 17:22 20,9 C 20,0 C 16,7 C 80 % 1004,9 hPa 0,0 l/m 0 min 0 min 129 W/m 12,9 km/h (3 Bft) 100,00 %
01.07.2023 17:24 20,8 C 20,6 C 16,7 C 80 % 1004,9 hPa 0,0 l/m 0 min 0 min 167 W/m 19,3 km/h (3 Bft) 97,50 %
01.07.2023 17:26 20,8 C 20,6 C 16,7 C 79 % 1004,9 hPa 0,0 l/m 0 min 0 min 182 W/m 12,9 km/h (3 Bft) 100,00 %
01.07.2023 17:28 20,8 C 20,6 C 16,7 C 79 % 1005,0 hPa 0,0 l/m 0 min 0 min 175 W/m 12,9 km/h (3 Bft) 100,00 %
01.07.2023 17:30 20,9 C 20,6 C 17,2 C 79 % 1005,0 hPa 0,0 l/m 0 min 0 min 159 W/m 9,7 km/h (2 Bft) 100,00 %
01.07.2023 17:32 20,9 C 20,6 C 17,2 C 78 % 1005,0 hPa 0,0 l/m 0 min 0 min 154 W/m 16,1 km/h (3 Bft) 100,00 %
01.07.2023 17:34 20,9 C 20,6 C 17,2 C 78 % 1004,9 hPa 0,0 l/m 0 min 0 min 153 W/m 16,1 km/h (3 Bft) 100,00 %
01.07.2023 17:36 20,9 C 20,6 C 16,7 C 78 % 1004,9 hPa 0,0 l/m 0 min 0 min 148 W/m 19,3 km/h (3 Bft) 97,87 %
01.07.2023 17:38 20,9 C 20,6 C 16,7 C 78 % 1005,0 hPa 0,0 l/m 0 min 0 min 148 W/m 19,3 km/h (3 Bft) 100,00 %
01.07.2023 17:40 20,9 C 20,6 C 17,2 C 77 % 1004,9 hPa 0,0 l/m 0 min 0 min 146 W/m 25,7 km/h (4 Bft) 97,87 %
01.07.2023 17:42 20,9 C 20,6 C 17,2 C 77 % 1004,9 hPa 0,0 l/m 0 min 0 min 132 W/m 16,1 km/h (3 Bft) 97,87 %
01.07.2023 17:44 21,0 C 20,6 C 17,2 C 77 % 1004,9 hPa 0,0 l/m 0 min 0 min 126 W/m 9,7 km/h (2 Bft) 100,00 %
01.07.2023 17:46 20,9 C 20,6 C 17,2 C 76 % 1004,9 hPa 0,0 l/m 0 min 0 min 147 W/m 16,1 km/h (3 Bft) 100,00 %
01.07.2023 17:48 21,0 C 20,6 C 17,2 C 76 % 1005,0 hPa 0,0 l/m 0 min 0 min 188 W/m 16,1 km/h (3 Bft) 97,87 %
01.07.2023 17:50 21,0 C 20,6 C 17,2 C 76 % 1004,9 hPa 0,0 l/m 0 min 0 min 213 W/m 12,9 km/h (3 Bft) 97,87 %
01.07.2023 17:52 21,1 C 21,1 C 17,2 C 77 % 1005,0 hPa 0,0 l/m 0 min 0 min 259 W/m 12,9 km/h (3 Bft) 100,00 %
01.07.2023 17:54 21,1 C 21,1 C 17,2 C 76 % 1005,0 hPa 0,0 l/m 0 min 0 min 266 W/m 9,7 km/h (2 Bft) 100,00 %
01.07.2023 17:56 21,2 C 21,1 C 17,2 C 76 % 1005,0 hPa 0,0 l/m 0 min 0 min 248 W/m 12,9 km/h (3 Bft) 100,00 %
01.07.2023 17:58 21,2 C 21,7 C 17,2 C 76 % 1005,0 hPa 0,0 l/m 2 min 0 min 269 W/m 16,1 km/h (3 Bft) 97,87 %
01.07.2023 18:00 21,2 C 21,1 C 17,2 C 76 % 1005,0 hPa 0,0 l/m 0 min 0 min 217 W/m 29,0 km/h (5 Bft) 97,87 %
01.07.2023 18:02 21,3 C 21,1 C 17,2 C 75 % 1005,0 hPa 0,0 l/m 0 min 0 min 201 W/m 16,1 km/h (3 Bft) 97,87 %
01.07.2023 18:04 21,3 C 21,1 C 17,2 C 76 % 1005,1 hPa 0,0 l/m 0 min 0 min 179 W/m 16,1 km/h (3 Bft) 97,87 %
01.07.2023 18:08 21,3 C 20,6 C 17,2 C 76 % 1005,1 hPa 0,0 l/m 0 min 0 min 129 W/m 16,1 km/h (3 Bft) 97,92 %
01.07.2023 18:10 21,3 C 20,6 C 17,2 C 76 % 1005,2 hPa 0,0 l/m 0 min 0 min 105 W/m 16,1 km/h (3 Bft) 97,87 %
01.07.2023 18:12 21,3 C 20,6 C 17,2 C 76 % 1005,2 hPa 0,0 l/m 0 min 0 min 93 W/m 16,1 km/h (3 Bft) 95,74 %
01.07.2023 18:14 21,2 C 20,6 C 17,2 C 76 % 1005,1 hPa 0,0 l/m 0 min 0 min 77 W/m 16,1 km/h (3 Bft) 97,83 %
01.07.2023 18:16 21,1 C 20,0 C 16,7 C 76 % 1005,2 hPa 0,0 l/m 0 min 0 min 61 W/m 25,7 km/h (4 Bft) 95,74 %
01.07.2023 18:18 21,1 C 20,0 C 16,7 C 76 % 1005,2 hPa 0,0 l/m 0 min 0 min 64 W/m 12,9 km/h (3 Bft) 97,87 %
01.07.2023 18:20 21,0 C 20,0 C 16,7 C 77 % 1005,1 hPa 0,0 l/m 0 min 0 min 79 W/m 9,7 km/h (2 Bft) 97,87 %
01.07.2023 18:22 20,9 C 20,0 C 16,7 C 77 % 1005,2 hPa 0,0 l/m 0 min 0 min 98 W/m 12,9 km/h (3 Bft) 97,87 %
01.07.2023 18:24 20,9 C 20,0 C 16,7 C 78 % 1005,1 hPa 0,0 l/m 0 min 0 min 112 W/m 6,4 km/h (2 Bft) 95,74 %
01.07.2023 18:26 20,9 C 20,0 C 16,7 C 78 % 1005,1 hPa 0,0 l/m 0 min 0 min 128 W/m 6,4 km/h (2 Bft) 97,87 %
01.07.2023 18:28 20,8 C 20,0 C 16,7 C 78 % 1005,1 hPa 0,0 l/m 0 min 0 min 151 W/m 6,4 km/h (2 Bft) 95,65 %
01.07.2023 18:30 20,8 C 20,6 C 16,7 C 78 % 1005,1 hPa 0,0 l/m 0 min 0 min 172 W/m 12,9 km/h (3 Bft) 97,87 %
01.07.2023 18:32 20,8 C 20,6 C 16,7 C 78 % 1005,1 hPa 0,0 l/m 0 min 0 min 187 W/m 12,9 km/h (3 Bft) 97,87 %
01.07.2023 18:34 20,8 C 20,6 C 16,7 C 79 % 1005,1 hPa 0,0 l/m 0 min 0 min 187 W/m 12,9 km/h (3 Bft) 100,00 %
01.07.2023 18:36 20,8 C 20,6 C 17,2 C 79 % 1005,1 hPa 0,0 l/m 0 min 0 min 182 W/m 19,3 km/h (3 Bft) 100,00 %
01.07.2023 18:38 20,9 C 21,1 C 17,2 C 79 % 1005,2 hPa 0,0 l/m 0 min 0 min 174 W/m 9,7 km/h (2 Bft) 100,00 %
01.07.2023 18:40 21,0 C 21,1 C 17,2 C 79 % 1005,2 hPa 0,0 l/m 0 min 0 min 143 W/m 16,1 km/h (3 Bft) 97,83 %
01.07.2023 18:42 21,0 C 21,1 C 17,2 C 79 % 1005,2 hPa 0,0 l/m 0 min 0 min 85 W/m 12,9 km/h (3 Bft) 100,00 %
01.07.2023 18:44 21,1 C 20,6 C 17,2 C 79 % 1005,3 hPa 0,0 l/m 0 min 0 min 48 W/m 12,9 km/h (3 Bft) 100,00 %
01.07.2023 18:46 21,1 C 20,6 C 17,2 C 79 % 1005,2 hPa 0,0 l/m 0 min 0 min 27 W/m 9,7 km/h (2 Bft) 100,00 %
01.07.2023 18:48 21,0 C 20,6 C 16,7 C 79 % 1005,4 hPa 0,0 l/m 0 min 0 min 17 W/m 16,1 km/h (3 Bft) 100,00 %
01.07.2023 18:50 21,0 C 20,0 C 16,7 C 79 % 1005,4 hPa 0,0 l/m 0 min 0 min 14 W/m 12,9 km/h (3 Bft) 100,00 %
01.07.2023 18:52 20,9 C 20,0 C 16,7 C 79 % 1005,4 hPa 0,0 l/m 0 min 0 min 15 W/m 12,9 km/h (3 Bft) 97,87 %
01.07.2023 18:54 20,8 C 20,0 C 16,1 C 78 % 1005,4 hPa 0,0 l/m 0 min 0 min 26 W/m 16,1 km/h (3 Bft) 97,83 %
01.07.2023 18:56 20,7 C 20,0 C 16,1 C 79 % 1005,5 hPa 0,0 l/m 0 min 0 min 42 W/m 12,9 km/h (3 Bft) 100,00 %
01.07.2023 18:58 20,7 C 19,4 C 16,1 C 79 % 1005,5 hPa 0,0 l/m 0 min 0 min 47 W/m 12,9 km/h (3 Bft) 100,00 %
01.07.2023 19:00 20,6 C 19,4 C 16,1 C 79 % 1005,5 hPa 0,0 l/m 0 min 0 min 42 W/m 6,4 km/h (2 Bft) 100,00 %
01.07.2023 19:02 20,5 C 19,4 C 16,1 C 80 % 1005,6 hPa 0,0 l/m 0 min 0 min 36 W/m 12,9 km/h (3 Bft) 100,00 %
01.07.2023 19:04 20,4 C 19,4 C 16,1 C 80 % 1005,6 hPa 0,0 l/m 0 min 0 min 32 W/m 16,1 km/h (3 Bft) 95,83 %
01.07.2023 19:06 20,3 C 19,4 C 16,1 C 80 % 1005,5 hPa 0,0 l/m 0 min 0 min 32 W/m 12,9 km/h (3 Bft) 97,87 %
01.07.2023 19:08 20,3 C 19,4 C 16,1 C 80 % 1005,6 hPa 0,0 l/m 0 min 0 min 29 W/m 12,9 km/h (3 Bft) 97,83 %
01.07.2023 19:10 20,2 C 19,4 C 16,1 C 81 % 1005,6 hPa 0,0 l/m 0 min 0 min 28 W/m 16,1 km/h (3 Bft) 97,87 %
01.07.2023 19:12 20,2 C 19,4 C 16,1 C 81 % 1005,6 hPa 0,0 l/m 0 min 0 min 32 W/m 6,4 km/h (2 Bft) 95,74 %
01.07.2023 19:14 20,1 C 19,4 C 16,1 C 81 % 1005,7 hPa 0,0 l/m 0 min 0 min 33 W/m 16,1 km/h (3 Bft) 95,74 %
01.07.2023 19:16 20,1 C 18,9 C 15,6 C 81 % 1005,7 hPa 0,0 l/m 0 min 0 min 33 W/m 6,4 km/h (2 Bft) 95,74 %
01.07.2023 19:18 20,0 C 18,9 C 15,6 C 82 % 1005,7 hPa 0,0 l/m 0 min 0 min 33 W/m 12,9 km/h (3 Bft) 95,74 %
01.07.2023 19:20 20,0 C 18,9 C 15,6 C 82 % 1005,7 hPa 0,0 l/m 0 min 0 min 33 W/m 9,7 km/h (2 Bft) 93,62 %
01.07.2023 19:22 19,9 C 19,4 C 15,6 C 82 % 1005,7 hPa 0,0 l/m 0 min 0 min 37 W/m 16,1 km/h (3 Bft) 97,14 %
01.07.2023 19:24 19,9 C 19,4 C 15,6 C 82 % 1005,7 hPa 0,0 l/m 0 min 0 min 47 W/m 12,9 km/h (3 Bft) 95,65 %
01.07.2023 19:26 19,9 C 19,4 C 15,6 C 82 % 1005,7 hPa 0,0 l/m 0 min 0 min 62 W/m 22,5 km/h (4 Bft) 93,62 %
01.07.2023 19:28 19,9 C 19,4 C 15,6 C 82 % 1005,7 hPa 0,0 l/m 0 min 0 min 75 W/m 12,9 km/h (3 Bft) 95,74 %
01.07.2023 19:30 19,9 C 19,4 C 15,6 C 82 % 1005,8 hPa 0,0 l/m 0 min 0 min 88 W/m 6,4 km/h (2 Bft) 95,74 %
01.07.2023 19:32 19,9 C 19,4 C 15,6 C 82 % 1005,8 hPa 0,0 l/m 0 min 0 min 94 W/m 19,3 km/h (3 Bft) 95,74 %
01.07.2023 19:34 19,9 C 19,4 C 16,1 C 83 % 1005,8 hPa 0,0 l/m 0 min 0 min 97 W/m 12,9 km/h (3 Bft) 95,74 %
01.07.2023 19:36 19,9 C 19,4 C 16,1 C 83 % 1005,8 hPa 0,0 l/m 0 min 0 min 93 W/m 19,3 km/h (3 Bft) 95,74 %
01.07.2023 19:38 19,9 C 19,4 C 16,1 C 83 % 1005,9 hPa 0,0 l/m 0 min 0 min 89 W/m 12,9 km/h (3 Bft) 95,65 %
01.07.2023 19:40 19,9 C 19,4 C 16,1 C 83 % 1005,8 hPa 0,0 l/m 0 min 0 min 87 W/m 12,9 km/h (3 Bft) 95,74 %
01.07.2023 19:42 19,9 C 19,4 C 16,1 C 83 % 1005,9 hPa 0,0 l/m 0 min 0 min 78 W/m 12,9 km/h (3 Bft) 93,62 %
01.07.2023 19:44 19,9 C 19,4 C 16,1 C 83 % 1005,9 hPa 0,0 l/m 0 min 0 min 76 W/m 19,3 km/h (3 Bft) 93,62 %
01.07.2023 19:46 19,9 C 19,4 C 16,1 C 83 % 1005,9 hPa 0,0 l/m 0 min 0 min 71 W/m 25,7 km/h (4 Bft) 93,62 %
01.07.2023 19:48 19,9 C 19,4 C 16,1 C 83 % 1006,0 hPa 0,0 l/m 0 min 0 min 47 W/m 19,3 km/h (3 Bft) 95,74 %
01.07.2023 19:50 19,9 C 19,4 C 16,1 C 83 % 1006,0 hPa 0,0 l/m 0 min 0 min 33 W/m 16,1 km/h (3 Bft) 95,74 %
01.07.2023 19:52 19,9 C 19,4 C 16,1 C 83 % 1006,0 hPa 0,0 l/m 0 min 0 min 39 W/m 12,9 km/h (3 Bft) 95,65 %
01.07.2023 19:54 19,9 C 19,4 C 15,6 C 83 % 1005,9 hPa 0,0 l/m 0 min 0 min 52 W/m 16,1 km/h (3 Bft) 97,87 %
01.07.2023 19:56 19,9 C 19,4 C 15,6 C 83 % 1006,0 hPa 0,0 l/m 0 min 0 min 52 W/m 12,9 km/h (3 Bft) 95,74 %
01.07.2023 19:58 19,9 C 19,4 C 15,6 C 83 % 1006,0 hPa 0,0 l/m 0 min 0 min 51 W/m 19,3 km/h (3 Bft) 93,62 %
01.07.2023 20:00 19,8 C 19,4 C 16,1 C 83 % 1006,0 hPa 0,0 l/m 0 min 0 min 51 W/m 19,3 km/h (3 Bft) 95,74 %
01.07.2023 20:02 19,8 C 19,4 C 16,1 C 83 % 1006,0 hPa 0,0 l/m 0 min 0 min 48 W/m 12,9 km/h (3 Bft) 93,62 %
01.07.2023 20:04 19,8 C 18,9 C 15,6 C 83 % 1006,0 hPa 0,0 l/m 0 min 0 min 44 W/m 12,9 km/h (3 Bft) 95,74 %
01.07.2023 20:06 19,8 C 18,9 C 15,6 C 83 % 1006,1 hPa 0,0 l/m 0 min 0 min 41 W/m 12,9 km/h (3 Bft) 93,62 %
01.07.2023 20:08 19,8 C 18,9 C 15,6 C 83 % 1006,1 hPa 0,0 l/m 0 min 0 min 41 W/m 12,9 km/h (3 Bft) 95,74 %
01.07.2023 20:10 19,7 C 18,9 C 15,6 C 82 % 1006,1 hPa 0,0 l/m 0 min 0 min 43 W/m 19,3 km/h (3 Bft) 97,87 %
01.07.2023 20:12 19,7 C 18,9 C 15,6 C 82 % 1006,2 hPa 0,0 l/m 0 min 0 min 42 W/m 19,3 km/h (3 Bft) 97,87 %
01.07.2023 20:14 19,6 C 18,9 C 15,6 C 82 % 1006,2 hPa 0,0 l/m 0 min 0 min 37 W/m 22,5 km/h (4 Bft) 97,87 %
01.07.2023 20:16 19,6 C 18,9 C 15,6 C 81 % 1006,3 hPa 0,0 l/m 0 min 0 min 34 W/m 12,9 km/h (3 Bft) 97,87 %
01.07.2023 20:18 19,6 C 18,9 C 15,6 C 81 % 1006,3 hPa 0,0 l/m 0 min 0 min 33 W/m 12,9 km/h (3 Bft) 97,83 %
01.07.2023 20:20 19,5 C 18,9 C 15,6 C 81 % 1006,3 hPa 0,0 l/m 0 min 0 min 28 W/m 19,3 km/h (3 Bft) 97,87 %
01.07.2023 20:22 19,4 C 18,9 C 15,6 C 81 % 1006,3 hPa 0,0 l/m 0 min 0 min 31 W/m 12,9 km/h (3 Bft) 95,74 %
01.07.2023 20:24 19,4 C 18,3 C 15,6 C 81 % 1006,4 hPa 0,0 l/m 0 min 0 min 32 W/m 12,9 km/h (3 Bft) 97,87 %
01.07.2023 20:26 19,3 C 18,3 C 15,6 C 81 % 1006,4 hPa 0,0 l/m 0 min 0 min 28 W/m 16,1 km/h (3 Bft) 97,87 %
01.07.2023 20:28 19,3 C 18,3 C 15,0 C 82 % 1006,4 hPa 0,0 l/m 0 min 0 min 23 W/m 16,1 km/h (3 Bft) 97,87 %
01.07.2023 20:30 19,2 C 18,3 C 15,0 C 82 % 1006,5 hPa 0,0 l/m 0 min 0 min 20 W/m 12,9 km/h (3 Bft) 100,00 %
01.07.2023 20:32 19,2 C 18,3 C 15,0 C 82 % 1006,5 hPa 0,0 l/m 0 min 0 min 18 W/m 16,1 km/h (3 Bft) 100,00 %
01.07.2023 20:34 19,1 C 18,3 C 15,0 C 81 % 1006,5 hPa 0,0 l/m 0 min 0 min 17 W/m 16,1 km/h (3 Bft) 100,00 %
01.07.2023 20:36 19,1 C 18,3 C 15,0 C 82 % 1006,5 hPa 0,0 l/m 0 min 0 min 18 W/m 16,1 km/h (3 Bft) 97,87 %
01.07.2023 20:38 19,1 C 18,3 C 14,4 C 83 % 1006,5 hPa 0,0 l/m 0 min 2 min 19 W/m 16,1 km/h (3 Bft) 100,00 %
01.07.2023 20:40 18,9 C 17,8 C 14,4 C 83 % 1006,5 hPa 0,0 l/m 0 min 0 min 19 W/m 19,3 km/h (3 Bft) 100,00 %
01.07.2023 20:42 18,8 C 17,8 C 13,9 C 84 % 1006,4 hPa 0,0 l/m 0 min 0 min 18 W/m 9,7 km/h (2 Bft) 100,00 %
01.07.2023 20:44 18,7 C 17,8 C 13,9 C 84 % 1006,4 hPa 0,0 l/m 0 min 0 min 16 W/m 16,1 km/h (3 Bft) 98,15 %
01.07.2023 20:46 18,6 C 17,2 C 13,9 C 84 % 1006,4 hPa 0,0 l/m 0 min 0 min 15 W/m 6,4 km/h (2 Bft) 100,00 %
01.07.2023 20:48 18,6 C 17,2 C 13,9 C 85 % 1006,3 hPa 0,0 l/m 0 min 0 min 18 W/m 3,2 km/h (1 Bft) 97,83 %
01.07.2023 20:50 18,5 C 17,2 C 13,9 C 85 % 1006,4 hPa 0,0 l/m 0 min 0 min 20 W/m 3,2 km/h (1 Bft) 100,00 %
01.07.2023 20:52 18,4 C 17,2 C 13,9 C 86 % 1006,4 hPa 0,0 l/m 0 min 0 min 21 W/m 6,4 km/h (2 Bft) 100,00 %
01.07.2023 20:54 18,4 C 17,2 C 13,9 C 86 % 1006,4 hPa 0,0 l/m 0 min 0 min 21 W/m 3,2 km/h (1 Bft) 100,00 %
01.07.2023 20:56 18,4 C 17,2 C 13,9 C 86 % 1006,4 hPa 0,0 l/m 0 min 0 min 19 W/m 6,4 km/h (2 Bft) 100,00 %
01.07.2023 20:58 18,4 C 17,2 C 13,9 C 87 % 1006,4 hPa 0,0 l/m 0 min 0 min 18 W/m 3,2 km/h (1 Bft) 97,87 %
01.07.2023 21:00 18,3 C 17,2 C 13,9 C 87 % 1006,5 hPa 0,0 l/m 0 min 0 min 18 W/m 3,2 km/h (1 Bft) 95,65 %
01.07.2023 21:02 18,3 C 17,2 C 13,9 C 87 % 1006,5 hPa 0,0 l/m 0 min 0 min 18 W/m 6,4 km/h (2 Bft) 97,87 %
01.07.2023 21:04 18,3 C 17,2 C 13,9 C 87 % 1006,5 hPa 0,0 l/m 0 min 0 min 18 W/m 6,4 km/h (2 Bft) 100,00 %
01.07.2023 21:06 18,3 C 17,2 C 13,9 C 87 % 1006,6 hPa 0,0 l/m 0 min 0 min 18 W/m 6,4 km/h (2 Bft) 100,00 %
01.07.2023 21:08 18,2 C 17,2 C 13,9 C 87 % 1006,6 hPa 0,0 l/m 0 min 0 min 18 W/m 6,4 km/h (2 Bft) 100,00 %
01.07.2023 21:10 18,2 C 17,2 C 13,9 C 87 % 1006,6 hPa 0,0 l/m 0 min 0 min 18 W/m 12,9 km/h (3 Bft) 100,00 %
01.07.2023 21:12 18,2 C 17,2 C 13,9 C 87 % 1006,5 hPa 0,0 l/m 0 min 0 min 18 W/m 6,4 km/h (2 Bft) 97,87 %
01.07.2023 21:14 18,1 C 17,2 C 13,9 C 87 % 1006,5 hPa 0,0 l/m 0 min 0 min 17 W/m 6,4 km/h (2 Bft) 100,00 %
01.07.2023 21:16 18,1 C 17,2 C 13,9 C 87 % 1006,6 hPa 0,0 l/m 0 min 0 min 14 W/m 6,4 km/h (2 Bft) 97,87 %
01.07.2023 21:18 18,1 C 17,2 C 13,9 C 88 % 1006,6 hPa 0,0 l/m 0 min 0 min 12 W/m 16,1 km/h (3 Bft) 100,00 %
01.07.2023 21:20 18,1 C 17,2 C 13,9 C 88 % 1006,6 hPa 0,0 l/m 0 min 0 min 11 W/m 6,4 km/h (2 Bft) 100,00 %
01.07.2023 21:22 18,0 C 17,2 C 13,9 C 88 % 1006,6 hPa 0,0 l/m 0 min 0 min 9 W/m 12,9 km/h (3 Bft) 100,00 %
01.07.2023 21:24 18,0 C 17,2 C 13,9 C 88 % 1006,6 hPa 0,0 l/m 0 min 0 min 9 W/m 9,7 km/h (2 Bft) 100,00 %
01.07.2023 21:26 18,0 C 17,2 C 13,9 C 88 % 1006,6 hPa 0,0 l/m 0 min 0 min 8 W/m 6,4 km/h (2 Bft) 100,00 %
01.07.2023 21:28 18,0 C 17,2 C 13,9 C 88 % 1006,7 hPa 0,0 l/m 0 min 0 min 6 W/m 6,4 km/h (2 Bft) 100,00 %
01.07.2023 21:30 18,0 C 17,2 C 13,9 C 89 % 1006,7 hPa 0,0 l/m 0 min 0 min 5 W/m 3,2 km/h (1 Bft) 100,00 %
01.07.2023 21:32 18,1 C 17,2 C 13,9 C 89 % 1006,8 hPa 0,0 l/m 0 min 0 min 5 W/m 6,4 km/h (2 Bft) 100,00 %
01.07.2023 21:34 18,0 C 17,2 C 13,9 C 89 % 1006,8 hPa 0,0 l/m 0 min 0 min 5 W/m 12,9 km/h (3 Bft) 100,00 %
01.07.2023 21:36 18,0 C 17,2 C 13,9 C 89 % 1006,8 hPa 0,0 l/m 0 min 0 min 5 W/m 6,4 km/h (2 Bft) 100,00 %
01.07.2023 21:38 18,0 C 17,2 C 13,9 C 89 % 1006,8 hPa 0,0 l/m 0 min 0 min 5 W/m 12,9 km/h (3 Bft) 100,00 %
01.07.2023 21:40 18,0 C 17,2 C 13,9 C 89 % 1006,8 hPa 0,0 l/m 0 min 0 min 1 W/m 12,9 km/h (3 Bft) 97,87 %
01.07.2023 21:42 18,0 C 17,2 C 13,9 C 89 % 1006,8 hPa 0,0 l/m 0 min 0 min 0 W/m 3,2 km/h (1 Bft) 100,00 %
01.07.2023 21:44 18,0 C 17,2 C 13,9 C 89 % 1006,9 hPa 0,0 l/m 0 min 0 min 0 W/m 9,7 km/h (2 Bft) 97,87 %
01.07.2023 21:46 18,0 C 17,2 C 13,9 C 89 % 1006,9 hPa 0,0 l/m 0 min 0 min 0 W/m 6,4 km/h (2 Bft) 100,00 %
01.07.2023 21:48 18,0 C 17,2 C 13,9 C 89 % 1006,9 hPa 0,0 l/m 0 min 0 min 0 W/m 12,9 km/h (3 Bft) 100,00 %
01.07.2023 21:50 18,0 C 17,2 C 14,4 C 89 % 1006,9 hPa 0,0 l/m 0 min 0 min 0 W/m 6,4 km/h (2 Bft) 95,74 %
01.07.2023 21:52 18,0 C 17,2 C 14,4 C 89 % 1007,0 hPa 0,0 l/m 0 min 0 min 0 W/m 6,4 km/h (2 Bft) 97,83 %
01.07.2023 21:54 18,0 C 17,2 C 13,9 C 89 % 1007,0 hPa 0,0 l/m 0 min 0 min 0 W/m 6,4 km/h (2 Bft) 95,74 %
01.07.2023 21:56 18,0 C 17,2 C 13,9 C 89 % 1007,1 hPa 0,0 l/m 0 min 0 min 0 W/m 12,9 km/h (3 Bft) 95,74 %
01.07.2023 21:58 18,0 C 17,2 C 13,9 C 89 % 1007,0 hPa 0,0 l/m 0 min 0 min 0 W/m 6,4 km/h (2 Bft) 95,74 %
01.07.2023 22:00 17,9 C 17,2 C 13,9 C 88 % 1007,1 hPa 0,0 l/m 0 min 0 min 0 W/m 12,9 km/h (3 Bft) 93,62 %
01.07.2023 22:02 17,9 C 17,2 C 13,9 C 88 % 1007,1 hPa 0,0 l/m 0 min 0 min 0 W/m 6,4 km/h (2 Bft) 91,49 %
01.07.2023 22:04 17,9 C 17,2 C 13,9 C 88 % 1007,2 hPa 0,0 l/m 0 min 0 min 0 W/m 6,4 km/h (2 Bft) 91,49 %
01.07.2023 22:06 17,9 C 17,2 C 13,9 C 88 % 1007,2 hPa 0,0 l/m 0 min 0 min 0 W/m 6,4 km/h (2 Bft) 95,74 %
01.07.2023 22:08 17,9 C 17,2 C 13,9 C 88 % 1007,2 hPa 0,0 l/m 0 min 0 min 0 W/m 3,2 km/h (1 Bft) 93,62 %
01.07.2023 22:10 17,9 C 17,2 C 13,9 C 89 % 1007,3 hPa 0,0 l/m 0 min 0 min 0 W/m 3,2 km/h (1 Bft) 95,74 %
01.07.2023 22:12 17,9 C 17,2 C 13,9 C 88 % 1007,3 hPa 0,0 l/m 0 min 0 min 0 W/m 6,4 km/h (2 Bft) 95,74 %
01.07.2023 22:14 17,9 C 17,2 C 13,9 C 88 % 1007,3 hPa 0,0 l/m 0 min 0 min 0 W/m 3,2 km/h (1 Bft) 95,74 %
01.07.2023 22:16 17,9 C 17,2 C 13,9 C 88 % 1007,3 hPa 0,0 l/m 0 min 0 min 0 W/m 3,2 km/h (1 Bft) 91,30 %
01.07.2023 22:18 17,9 C 17,2 C 13,9 C 88 % 1007,3 hPa 0,0 l/m 0 min 0 min 0 W/m 6,4 km/h (2 Bft) 93,62 %
01.07.2023 22:20 17,9 C 17,2 C 13,9 C 88 % 1007,4 hPa 0,0 l/m 0 min 0 min 0 W/m 6,4 km/h (2 Bft) 93,62 %
01.07.2023 22:22 17,9 C 17,2 C 13,9 C 88 % 1007,4 hPa 0,0 l/m 0 min 0 min 0 W/m 3,2 km/h (1 Bft) 95,74 %
01.07.2023 22:24 17,9 C 17,2 C 13,9 C 88 % 1007,4 hPa 0,0 l/m 0 min 0 min 0 W/m 6,4 km/h (2 Bft) 97,87 %
01.07.2023 22:26 17,9 C 17,2 C 13,9 C 88 % 1007,4 hPa 0,0 l/m 0 min 0 min 0 W/m 6,4 km/h (2 Bft) 89,36 %
01.07.2023 22:28 17,9 C 17,2 C 13,9 C 88 % 1007,5 hPa 0,0 l/m 0 min 0 min 0 W/m 3,2 km/h (1 Bft) 93,62 %
01.07.2023 22:30 17,9 C 17,2 C 13,9 C 88 % 1007,5 hPa 0,0 l/m 0 min 0 min 0 W/m 12,9 km/h (3 Bft) 95,65 %
01.07.2023 22:32 17,9 C 17,2 C 13,9 C 88 % 1007,5 hPa 0,0 l/m 0 min 0 min 0 W/m 3,2 km/h (1 Bft) 95,74 %
01.07.2023 22:34 17,9 C 17,2 C 13,9 C 88 % 1007,5 hPa 0,0 l/m 0 min 0 min 0 W/m 3,2 km/h (1 Bft) 95,74 %
01.07.2023 22:36 17,9 C 17,2 C 13,9 C 88 % 1007,5 hPa 0,0 l/m 0 min 0 min 0 W/m 3,2 km/h (1 Bft) 95,74 %
01.07.2023 22:38 17,9 C 17,2 C 13,9 C 88 % 1007,5 hPa 0,0 l/m 0 min 0 min 0 W/m 6,4 km/h (2 Bft) 95,74 %
01.07.2023 22:40 17,9 C 17,2 C 13,9 C 88 % 1007,5 hPa 0,0 l/m 0 min 0 min 0 W/m 6,4 km/h (2 Bft) 91,49 %
01.07.2023 22:42 17,9 C 17,2 C 13,9 C 88 % 1007,6 hPa 0,0 l/m 0 min 0 min 0 W/m 9,7 km/h (2 Bft) 95,74 %
01.07.2023 22:44 17,9 C 17,2 C 13,9 C 88 % 1007,6 hPa 0,0 l/m 0 min 0 min 0 W/m 9,7 km/h (2 Bft) 97,83 %
01.07.2023 22:46 17,9 C 17,2 C 13,9 C 88 % 1007,6 hPa 0,0 l/m 0 min 0 min 0 W/m 12,9 km/h (3 Bft) 97,87 %
01.07.2023 22:48 17,8 C 17,2 C 13,9 C 88 % 1007,7 hPa 0,0 l/m 0 min 0 min 0 W/m 3,2 km/h (1 Bft) 95,74 %
01.07.2023 22:50 17,8 C 17,2 C 13,9 C 88 % 1007,7 hPa 0,0 l/m 0 min 0 min 0 W/m 6,4 km/h (2 Bft) 97,87 %
01.07.2023 22:52 17,8 C 17,2 C 13,9 C 88 % 1007,7 hPa 0,0 l/m 0 min 0 min 0 W/m 6,4 km/h (2 Bft) 97,87 %
01.07.2023 22:54 17,8 C 16,7 C 13,9 C 88 % 1007,8 hPa 0,0 l/m 0 min 0 min 0 W/m 12,9 km/h (3 Bft) 97,87 %
01.07.2023 22:56 17,8 C 16,7 C 13,9 C 88 % 1007,8 hPa 0,0 l/m 0 min 0 min 0 W/m 3,2 km/h (1 Bft) 95,65 %
01.07.2023 22:58 17,8 C 16,7 C 13,9 C 88 % 1007,8 hPa 0,0 l/m 0 min 0 min 0 W/m 6,4 km/h (2 Bft) 95,74 %
01.07.2023 23:00 17,8 C 16,7 C 13,9 C 88 % 1007,8 hPa 0,0 l/m 0 min 0 min 0 W/m 16,1 km/h (3 Bft) 97,87 %
01.07.2023 23:02 17,8 C 16,7 C 13,9 C 88 % 1007,8 hPa 0,0 l/m 0 min 0 min 0 W/m 9,7 km/h (2 Bft) 95,74 %
01.07.2023 23:04 17,7 C 16,7 C 13,9 C 88 % 1007,8 hPa 0,0 l/m 0 min 0 min 0 W/m 6,4 km/h (2 Bft) 97,92 %
01.07.2023 23:06 17,7 C 16,7 C 13,9 C 88 % 1007,8 hPa 0,0 l/m 0 min 0 min 0 W/m 12,9 km/h (3 Bft) 95,74 %
01.07.2023 23:08 17,7 C 16,7 C 13,9 C 88 % 1007,8 hPa 0,0 l/m 0 min 0 min 0 W/m 6,4 km/h (2 Bft) 100,00 %
01.07.2023 23:10 17,7 C 16,7 C 13,9 C 88 % 1007,8 hPa 0,0 l/m 0 min 0 min 0 W/m 3,2 km/h (1 Bft) 100,00 %
01.07.2023 23:12 17,7 C 16,7 C 13,9 C 88 % 1007,8 hPa 0,0 l/m 0 min 0 min 0 W/m 12,9 km/h (3 Bft) 100,00 %
01.07.2023 23:14 17,7 C 16,7 C 13,9 C 88 % 1007,8 hPa 0,0 l/m 0 min 0 min 0 W/m 9,7 km/h (2 Bft) 95,35 %
01.07.2023 23:16 17,7 C 16,7 C 13,9 C 88 % 1007,8 hPa 0,0 l/m 0 min 0 min 0 W/m 6,4 km/h (2 Bft) 98,28 %
01.07.2023 23:18 17,7 C 16,7 C 13,9 C 88 % 1007,8 hPa 0,0 l/m 0 min 0 min 0 W/m 6,4 km/h (2 Bft) 97,87 %
01.07.2023 23:20 17,7 C 16,7 C 13,9 C 88 % 1007,8 hPa 0,0 l/m 0 min 0 min 0 W/m 12,9 km/h (3 Bft) 100,00 %
01.07.2023 23:22 17,7 C 16,7 C 13,9 C 88 % 1007,8 hPa 0,0 l/m 0 min 0 min 0 W/m 6,4 km/h (2 Bft) 98,31 %
01.07.2023 23:24 17,7 C 16,7 C 13,9 C 88 % 1007,8 hPa 0,0 l/m 0 min 0 min 0 W/m 12,9 km/h (3 Bft) 100,00 %
01.07.2023 23:26 17,7 C 16,7 C 13,9 C 88 % 1007,9 hPa 0,0 l/m 0 min 0 min 0 W/m 19,3 km/h (3 Bft) 100,00 %
01.07.2023 23:28 17,7 C 16,7 C 13,9 C 88 % 1007,9 hPa 0,0 l/m 0 min 0 min 0 W/m 6,4 km/h (2 Bft) 100,00 %
01.07.2023 23:30 17,7 C 16,7 C 13,9 C 88 % 1007,9 hPa 0,0 l/m 0 min 0 min 0 W/m 12,9 km/h (3 Bft) 97,87 %
01.07.2023 23:32 17,7 C 16,7 C 13,9 C 88 % 1007,9 hPa 0,0 l/m 0 min 0 min 0 W/m 6,4 km/h (2 Bft) 100,00 %
01.07.2023 23:34 17,7 C 16,7 C 13,9 C 88 % 1007,9 hPa 0,0 l/m 0 min 0 min 0 W/m 9,7 km/h (2 Bft) 100,00 %
01.07.2023 23:36 17,7 C 16,7 C 13,9 C 88 % 1007,9 hPa 0,0 l/m 0 min 0 min 0 W/m 9,7 km/h (2 Bft) 97,87 %
01.07.2023 23:38 17,6 C 16,7 C 13,9 C 88 % 1007,9 hPa 0,0 l/m 0 min 0 min 0 W/m 6,4 km/h (2 Bft) 100,00 %
01.07.2023 23:40 17,6 C 16,7 C 13,9 C 88 % 1007,9 hPa 0,0 l/m 0 min 0 min 0 W/m 9,7 km/h (2 Bft) 97,87 %
01.07.2023 23:42 17,6 C 16,7 C 13,9 C 88 % 1007,9 hPa 0,0 l/m 0 min 0 min 0 W/m 9,7 km/h (2 Bft) 97,87 %
01.07.2023 23:44 17,6 C 16,7 C 13,9 C 88 % 1007,9 hPa 0,0 l/m 0 min 0 min 0 W/m 19,3 km/h (3 Bft) 97,87 %
01.07.2023 23:46 17,6 C 16,7 C 13,3 C 88 % 1007,9 hPa 0,0 l/m 0 min 0 min 0 W/m 9,7 km/h (2 Bft) 98,31 %
01.07.2023 23:48 17,6 C 16,7 C 13,3 C 88 % 1007,9 hPa 0,0 l/m 0 min 0 min 0 W/m 12,9 km/h (3 Bft) 97,22 %
01.07.2023 23:50 17,6 C 16,7 C 13,3 C 88 % 1008,0 hPa 0,0 l/m 0 min 0 min 0 W/m 12,9 km/h (3 Bft) 97,96 %
01.07.2023 23:52 17,5 C 16,7 C 13,3 C 88 % 1007,9 hPa 0,0 l/m 0 min 0 min 0 W/m 12,9 km/h (3 Bft) 97,87 %
01.07.2023 23:54 17,5 C 16,7 C 13,3 C 88 % 1008,0 hPa 0,0 l/m 0 min 0 min 0 W/m 6,4 km/h (2 Bft) 97,87 %
01.07.2023 23:56 17,5 C 16,7 C 13,3 C 88 % 1007,9 hPa 0,0 l/m 0 min 0 min 0 W/m 6,4 km/h (2 Bft) 97,87 %
01.07.2023 23:58 17,5 C 16,7 C 13,3 C 88 % 1007,9 hPa 0,0 l/m 0 min 0 min 0 W/m 19,3 km/h (3 Bft) 96,23 %
_ Min-Zeit 08:20 08:06 08:10 05:20 15:58 - - - - 00:30 06:26
Minimum _ 16,8 C 15,6 C 11,1 C 72 % 1004,2 hPa - - - - 0,0 km/h (0 Bft) 89,36 %
_ Max-Zeit 16:36 14:58 15:58 12:32 00:00 07:58 14:54 12:12 15:30 15:30 00:28
Maximum _ 23,2 C 25,0 C 18,9 C 95 % 1010,3 hPa 0,2 l/m 2 min 4 min 850 W/m 61,2 km/h
SW (7 Bft)
100,00 %
Durchschnitt _ 18,9 C 18,4 C 14,8 C 82 % 1006,5 hPa #0,8 l/m #42 min. #1:22 h 138 W/m 14,5 km/h (3 Bft) 97,40 %
© 2023 W. Hausmann